QTR840 OTHH-VTSP
Flight info
| Callsign | QTR840 |
|---|---|
| Flight time | 6h 29m |
| Altitude | 28000 |
| Route | DATRI L564 BAT/N0494F290 L564 MIGMA M628 KATIT M440 MIDGU/N0493F350 M440 TULBU M628 TOLDA L555 TOTOX P574 OKILA/N0488F370 P574 MMV P761 IDASO N571 RUPTI L645 UBNEN |
| Aircraft | B77W/H-SDE1E3FGHIJ3J7M1P2RWXYZ/LB1D1 |
Departure
| Time | 2026-05-06 23:56 |
|---|---|
| Airport | Hamad International Airport (OTHH) |
Arrival
| Time | 2026-05-07 06:25 |
|---|---|
| Airport | Phuket International Airport (VTSP) |
| Time | Latitude | Longitude | Altitude | Speed | Heading |
|---|---|---|---|---|---|
| 2026-05-06 23:31 | 25.26873 | 51.61287 | 16 ft | 0 kts | 293° |
| 2026-05-06 23:41 | 25.26871 | 51.61293 | 15 ft | 2 kts | 293° |
| 2026-05-06 23:41 | 25.26865 | 51.61308 | 15 ft | 2 kts | 293° |
| 2026-05-06 23:41 | 25.26860 | 51.61322 | 15 ft | 2 kts | 293° |
| 2026-05-06 23:42 | 25.26852 | 51.61337 | 15 ft | 2 kts | 310° |
| 2026-05-06 23:42 | 25.26841 | 51.61348 | 15 ft | 2 kts | 329° |
| 2026-05-06 23:42 | 25.26828 | 51.61355 | 15 ft | 2 kts | 345° |
| 2026-05-06 23:42 | 25.26813 | 51.61357 | 15 ft | 2 kts | 1° |
| 2026-05-06 23:43 | 25.26798 | 51.61356 | 15 ft | 2 kts | 17° |
| 2026-05-06 23:43 | 25.26784 | 51.61349 | 15 ft | 2 kts | 26° |
| 2026-05-06 23:43 | 25.26770 | 51.61342 | 15 ft | 2 kts | 24° |
| 2026-05-06 23:43 | 25.26761 | 51.61338 | 15 ft | 0 kts | 23° |
| 2026-05-06 23:45 | 25.26762 | 51.61338 | 15 ft | 0 kts | 23° |
| 2026-05-06 23:46 | 25.26788 | 51.61350 | 15 ft | 7 kts | 23° |
| 2026-05-06 23:46 | 25.26848 | 51.61379 | 15 ft | 11 kts | 23° |
| 2026-05-06 23:46 | 25.26933 | 51.61418 | 15 ft | 14 kts | 23° |
| 2026-05-06 23:46 | 25.26984 | 51.61445 | 15 ft | 8 kts | 35° |
| 2026-05-06 23:47 | 25.27021 | 51.61513 | 15 ft | 11 kts | 68° |
| 2026-05-06 23:47 | 25.27043 | 51.61566 | 15 ft | 5 kts | 49° |
| 2026-05-06 23:47 | 25.27083 | 51.61578 | 15 ft | 7 kts | 351° |
| 2026-05-06 23:47 | 25.27149 | 51.61552 | 15 ft | 12 kts | 338° |
| 2026-05-06 23:48 | 25.27240 | 51.61512 | 15 ft | 15 kts | 338° |
| 2026-05-06 23:48 | 25.27340 | 51.61469 | 15 ft | 13 kts | 338° |
| 2026-05-06 23:48 | 25.27383 | 51.61444 | 15 ft | 5 kts | 317° |
| 2026-05-06 23:48 | 25.27392 | 51.61409 | 15 ft | 6 kts | 265° |
| 2026-05-06 23:49 | 25.27372 | 51.61339 | 15 ft | 12 kts | 249° |
| 2026-05-06 23:49 | 25.27334 | 51.61232 | 15 ft | 14 kts | 248° |
| 2026-05-06 23:49 | 25.27302 | 51.61144 | 16 ft | 10 kts | 248° |
| 2026-05-06 23:49 | 25.27269 | 51.61052 | 17 ft | 15 kts | 249° |
| 2026-05-06 23:50 | 25.27227 | 51.60935 | 21 ft | 17 kts | 249° |
| 2026-05-06 23:50 | 25.27131 | 51.60674 | 30 ft | 20 kts | 249° |
| 2026-05-06 23:50 | 25.27077 | 51.60525 | 32 ft | 18 kts | 248° |
| 2026-05-06 23:51 | 25.27031 | 51.60399 | 32 ft | 16 kts | 248° |
| 2026-05-06 23:51 | 25.26990 | 51.60286 | 32 ft | 15 kts | 248° |
| 2026-05-06 23:51 | 25.26970 | 51.60230 | 32 ft | 14 kts | 248° |
| 2026-05-06 23:52 | 25.26943 | 51.60166 | 32 ft | 9 kts | 231° |
| 2026-05-06 23:52 | 25.26870 | 51.60157 | 30 ft | 14 kts | 159° |
| 2026-05-06 23:52 | 25.26755 | 51.60207 | 28 ft | 20 kts | 158° |
| 2026-05-06 23:52 | 25.26603 | 51.60274 | 27 ft | 25 kts | 158° |
| 2026-05-06 23:53 | 25.26421 | 51.60354 | 26 ft | 30 kts | 158° |
| 2026-05-06 23:53 | 25.26228 | 51.60439 | 25 ft | 28 kts | 158° |
| 2026-05-06 23:53 | 25.26051 | 51.60519 | 24 ft | 26 kts | 159° |
| 2026-05-06 23:53 | 25.25886 | 51.60590 | 23 ft | 24 kts | 159° |
| 2026-05-06 23:54 | 25.25729 | 51.60660 | 20 ft | 22 kts | 158° |
| 2026-05-06 23:54 | 25.25643 | 51.60695 | 19 ft | 10 kts | 174° |
| 2026-05-06 23:54 | 25.25592 | 51.60651 | 19 ft | 9 kts | 245° |
| 2026-05-06 23:54 | 25.25566 | 51.60578 | 21 ft | 8 kts | 255° |
| 2026-05-06 23:55 | 25.25585 | 51.60524 | 23 ft | 7 kts | 330° |
| 2026-05-06 23:55 | 25.25638 | 51.60498 | 25 ft | 16 kts | 337° |
| 2026-05-06 23:55 | 25.25978 | 51.60348 | 25 ft | 89 kts | 338° |
| 2026-05-06 23:55 | 25.26778 | 51.59994 | 28 ft | 156 kts | 338° |
| 2026-05-06 23:56 | 25.27892 | 51.59506 | 387 ft | 180 kts | 339° |
| 2026-05-06 23:56 | 25.29057 | 51.58986 | 1209 ft | 186 kts | 339° |
| 2026-05-06 23:56 | 25.30328 | 51.58423 | 1628 ft | 207 kts | 340° |
| 2026-05-06 23:56 | 25.31731 | 51.57806 | 2068 ft | 229 kts | 340° |
| 2026-05-06 23:57 | 25.33236 | 51.57141 | 2714 ft | 243 kts | 340° |
| 2026-05-06 23:57 | 25.34874 | 51.56417 | 3367 ft | 257 kts | 340° |
| 2026-05-06 23:57 | 25.36537 | 51.55680 | 4184 ft | 263 kts | 340° |
| 2026-05-06 23:57 | 25.38253 | 51.54921 | 5037 ft | 268 kts | 340° |
| 2026-05-06 23:58 | 25.40099 | 51.54524 | 5828 ft | 271 kts | 5° |
| 2026-05-06 23:58 | 25.41920 | 51.55110 | 6580 ft | 274 kts | 32° |
| 2026-05-06 23:58 | 25.43296 | 51.56560 | 7322 ft | 278 kts | 59° |
| 2026-05-06 23:58 | 25.43923 | 51.58544 | 8122 ft | 281 kts | 84° |
| 2026-05-06 23:59 | 25.43683 | 51.60712 | 8836 ft | 289 kts | 110° |
| 2026-05-06 23:59 | 25.42589 | 51.62575 | 9532 ft | 297 kts | 136° |
| 2026-05-06 23:59 | 25.40807 | 51.63783 | 10299 ft | 303 kts | 161° |
| 2026-05-06 23:59 | 25.38701 | 51.64108 | 10783 ft | 319 kts | 183° |
| 2026-05-07 00:00 | 25.36441 | 51.63876 | 11249 ft | 334 kts | 185° |
| 2026-05-07 00:00 | 25.34077 | 51.63619 | 11719 ft | 349 kts | 185° |
| 2026-05-07 00:00 | 25.31566 | 51.63347 | 11967 ft | 372 kts | 185° |
| 2026-05-07 00:00 | 25.28877 | 51.63057 | 11999 ft | 395 kts | 185° |
| 2026-05-07 00:01 | 25.26114 | 51.62757 | 12652 ft | 403 kts | 184° |
| 2026-05-07 00:01 | 25.23315 | 51.62453 | 13643 ft | 401 kts | 184° |
| 2026-05-07 00:01 | 25.20531 | 51.62151 | 14480 ft | 402 kts | 184° |
| 2026-05-07 00:01 | 25.17720 | 51.61847 | 15187 ft | 408 kts | 185° |
| 2026-05-07 00:02 | 25.14861 | 51.61538 | 15923 ft | 412 kts | 185° |
| 2026-05-07 00:02 | 25.12035 | 51.61232 | 16684 ft | 414 kts | 185° |
| 2026-05-07 00:02 | 25.09140 | 51.60920 | 17451 ft | 416 kts | 185° |
| 2026-05-07 00:02 | 25.06254 | 51.60609 | 18187 ft | 418 kts | 186° |
| 2026-05-07 00:03 | 25.03366 | 51.60298 | 18821 ft | 422 kts | 186° |
| 2026-05-07 00:03 | 25.00423 | 51.59981 | 19440 ft | 427 kts | 186° |
| 2026-05-07 00:03 | 24.97452 | 51.59663 | 20049 ft | 431 kts | 187° |
| 2026-05-07 00:03 | 24.94430 | 51.59338 | 20691 ft | 435 kts | 187° |
| 2026-05-07 00:04 | 24.91384 | 51.59013 | 21313 ft | 438 kts | 187° |
| 2026-05-07 00:04 | 24.88325 | 51.58686 | 21914 ft | 441 kts | 187° |
| 2026-05-07 00:04 | 24.85267 | 51.58359 | 22465 ft | 445 kts | 188° |
| 2026-05-07 00:04 | 24.82156 | 51.58028 | 23029 ft | 449 kts | 188° |
| 2026-05-07 00:05 | 24.79023 | 51.57697 | 23629 ft | 450 kts | 188° |
| 2026-05-07 00:05 | 24.75922 | 51.57370 | 24194 ft | 453 kts | 188° |
| 2026-05-07 00:05 | 24.72736 | 51.57036 | 24745 ft | 455 kts | 188° |
| 2026-05-07 00:05 | 24.69620 | 51.56521 | 25263 ft | 456 kts | 194° |
| 2026-05-07 00:06 | 24.66497 | 51.55792 | 25779 ft | 458 kts | 195° |
| 2026-05-07 00:06 | 24.63345 | 51.55041 | 26304 ft | 461 kts | 195° |
| 2026-05-07 00:06 | 24.60235 | 51.54301 | 26795 ft | 463 kts | 195° |
| 2026-05-07 00:06 | 24.57046 | 51.53544 | 27305 ft | 466 kts | 195° |
| 2026-05-07 00:07 | 24.53866 | 51.52791 | 27796 ft | 468 kts | 196° |
| 2026-05-07 00:07 | 24.50679 | 51.52037 | 28222 ft | 472 kts | 196° |
| 2026-05-07 00:07 | 24.47432 | 51.51269 | 28629 ft | 475 kts | 195° |
| 2026-05-07 00:07 | 24.44209 | 51.50509 | 29086 ft | 478 kts | 195° |
| 2026-05-07 00:08 | 24.40949 | 51.49740 | 29653 ft | 478 kts | 196° |
| 2026-05-07 00:08 | 24.37687 | 51.48972 | 30326 ft | 475 kts | 196° |
| 2026-05-07 00:08 | 24.34481 | 51.48219 | 30985 ft | 472 kts | 196° |
| 2026-05-07 00:08 | 24.31269 | 51.47463 | 31573 ft | 471 kts | 196° |
| 2026-05-07 00:09 | 24.28092 | 51.46716 | 32057 ft | 471 kts | 196° |
| 2026-05-07 00:09 | 24.24889 | 51.45964 | 32516 ft | 471 kts | 196° |
| 2026-05-07 00:09 | 24.21665 | 51.45341 | 33011 ft | 473 kts | 189° |
| 2026-05-07 00:09 | 24.18340 | 51.45184 | 33519 ft | 475 kts | 184° |
| 2026-05-07 00:10 | 24.15063 | 51.45191 | 34153 ft | 472 kts | 184° |
| 2026-05-07 00:10 | 24.11799 | 51.45207 | 34734 ft | 469 kts | 184° |
| 2026-05-07 00:10 | 24.05224 | 51.45237 | 34803 ft | 467 kts | 184° |
| 2026-05-07 00:11 | 23.98748 | 51.45262 | 34804 ft | 466 kts | 184° |
| 2026-05-07 00:11 | 23.92140 | 51.45286 | 34803 ft | 467 kts | 184° |
| 2026-05-07 00:12 | 23.85645 | 51.45309 | 34804 ft | 467 kts | 184° |
| 2026-05-07 00:12 | 23.79097 | 51.45331 | 34805 ft | 467 kts | 184° |
| 2026-05-07 00:13 | 23.72581 | 51.45353 | 34801 ft | 466 kts | 184° |
| 2026-05-07 00:13 | 23.66106 | 51.45375 | 34801 ft | 467 kts | 184° |
| 2026-05-07 00:14 | 23.59560 | 51.45397 | 34801 ft | 467 kts | 184° |
| 2026-05-07 00:14 | 23.53098 | 51.45419 | 34803 ft | 467 kts | 184° |
| 2026-05-07 00:15 | 23.46528 | 51.45444 | 34798 ft | 469 kts | 183° |
| 2026-05-07 00:15 | 23.39979 | 51.45548 | 34794 ft | 468 kts | 183° |
| 2026-05-07 00:16 | 23.33445 | 51.45654 | 34796 ft | 469 kts | 183° |
| 2026-05-07 00:16 | 23.26831 | 51.45760 | 34791 ft | 469 kts | 183° |
| 2026-05-07 00:17 | 23.20290 | 51.45860 | 34788 ft | 469 kts | 183° |
| 2026-05-07 00:17 | 23.13719 | 51.45950 | 34791 ft | 469 kts | 183° |
| 2026-05-07 00:18 | 23.07201 | 51.46039 | 34788 ft | 469 kts | 183° |
| 2026-05-07 00:18 | 23.00640 | 51.46315 | 34779 ft | 472 kts | 175° |
| 2026-05-07 00:19 | 22.94325 | 51.48369 | 34774 ft | 482 kts | 158° |
| 2026-05-07 00:19 | 22.88717 | 51.52528 | 34774 ft | 491 kts | 140° |
| 2026-05-07 00:20 | 22.84484 | 51.58405 | 34781 ft | 501 kts | 122° |
| 2026-05-07 00:20 | 22.82083 | 51.65521 | 34781 ft | 508 kts | 103° |
| 2026-05-07 00:21 | 22.81459 | 51.73144 | 34790 ft | 511 kts | 95° |
| 2026-05-07 00:21 | 22.80986 | 51.80766 | 34790 ft | 508 kts | 96° |
| 2026-05-07 00:22 | 22.80415 | 51.88393 | 34789 ft | 509 kts | 97° |
| 2026-05-07 00:22 | 22.79790 | 51.95995 | 34792 ft | 510 kts | 97° |
| 2026-05-07 00:23 | 22.79131 | 52.03621 | 34797 ft | 509 kts | 97° |
| 2026-05-07 00:23 | 22.78453 | 52.11244 | 34793 ft | 509 kts | 97° |
| 2026-05-07 00:24 | 22.77758 | 52.18912 | 34796 ft | 510 kts | 97° |
| 2026-05-07 00:24 | 22.77059 | 52.26530 | 34800 ft | 510 kts | 97° |
| 2026-05-07 00:25 | 22.76359 | 52.34093 | 34805 ft | 508 kts | 97° |
| 2026-05-07 00:25 | 22.75645 | 52.41760 | 34813 ft | 508 kts | 97° |
| 2026-05-07 00:26 | 22.74933 | 52.49342 | 34814 ft | 508 kts | 97° |
| 2026-05-07 00:26 | 22.74220 | 52.56900 | 34813 ft | 507 kts | 98° |
| 2026-05-07 00:27 | 22.73498 | 52.64508 | 34812 ft | 508 kts | 97° |
| 2026-05-07 00:27 | 22.72776 | 52.72079 | 34807 ft | 507 kts | 98° |
| 2026-05-07 00:28 | 22.72050 | 52.79655 | 34808 ft | 507 kts | 98° |
| 2026-05-07 00:28 | 22.71313 | 52.87307 | 34810 ft | 508 kts | 98° |
| 2026-05-07 00:29 | 22.70576 | 52.94920 | 34809 ft | 508 kts | 98° |
| 2026-05-07 00:30 | 22.69095 | 53.10096 | 34802 ft | 507 kts | 98° |
| 2026-05-07 00:30 | 22.68349 | 53.17686 | 34801 ft | 507 kts | 98° |
| 2026-05-07 00:31 | 22.67602 | 53.25249 | 34796 ft | 505 kts | 98° |
| 2026-05-07 00:31 | 22.66855 | 53.32780 | 34804 ft | 506 kts | 98° |
| 2026-05-07 00:32 | 22.66098 | 53.40365 | 34806 ft | 506 kts | 98° |
| 2026-05-07 00:32 | 22.65345 | 53.47884 | 34805 ft | 506 kts | 98° |
| 2026-05-07 00:33 | 22.64581 | 53.55467 | 34807 ft | 505 kts | 98° |
| 2026-05-07 00:33 | 22.63819 | 53.62997 | 34808 ft | 507 kts | 98° |
| 2026-05-07 00:34 | 22.63050 | 53.70570 | 34802 ft | 505 kts | 98° |
| 2026-05-07 00:34 | 22.62281 | 53.78102 | 34803 ft | 506 kts | 98° |
| 2026-05-07 00:35 | 22.61511 | 53.85599 | 34810 ft | 505 kts | 98° |
| 2026-05-07 00:35 | 22.60731 | 53.93168 | 34815 ft | 505 kts | 98° |
| 2026-05-07 00:36 | 22.59950 | 54.00711 | 34817 ft | 504 kts | 98° |
| 2026-05-07 00:36 | 22.59169 | 54.08222 | 34816 ft | 505 kts | 98° |
| 2026-05-07 00:37 | 22.58385 | 54.15717 | 34813 ft | 505 kts | 98° |
| 2026-05-07 00:37 | 22.57594 | 54.23252 | 34809 ft | 506 kts | 98° |
| 2026-05-07 00:38 | 22.56798 | 54.30804 | 34810 ft | 504 kts | 98° |
| 2026-05-07 00:38 | 22.56002 | 54.38312 | 34811 ft | 505 kts | 98° |
| 2026-05-07 00:39 | 22.55200 | 54.45850 | 34815 ft | 504 kts | 98° |
| 2026-05-07 00:39 | 22.54394 | 54.53390 | 34825 ft | 505 kts | 98° |
| 2026-05-07 00:40 | 22.53588 | 54.60897 | 34827 ft | 505 kts | 98° |
| 2026-05-07 00:40 | 22.52777 | 54.68415 | 34820 ft | 504 kts | 98° |
| 2026-05-07 00:41 | 22.51966 | 54.75900 | 34820 ft | 503 kts | 98° |
| 2026-05-07 00:41 | 22.51148 | 54.83417 | 34823 ft | 504 kts | 98° |
| 2026-05-07 00:42 | 22.50328 | 54.90922 | 34825 ft | 504 kts | 98° |
| 2026-05-07 00:42 | 22.49507 | 54.98405 | 34832 ft | 503 kts | 98° |
| 2026-05-07 00:43 | 22.48677 | 55.05932 | 34832 ft | 503 kts | 98° |
| 2026-05-07 00:43 | 22.47848 | 55.13415 | 34828 ft | 503 kts | 98° |
| 2026-05-07 00:44 | 22.47015 | 55.20913 | 34825 ft | 503 kts | 98° |
| 2026-05-07 00:44 | 22.46182 | 55.28369 | 34827 ft | 503 kts | 98° |
| 2026-05-07 00:45 | 22.45772 | 55.35934 | 34823 ft | 505 kts | 86° |
| 2026-05-07 00:45 | 22.47184 | 55.43329 | 34818 ft | 505 kts | 70° |
| 2026-05-07 00:46 | 22.49833 | 55.50312 | 34831 ft | 505 kts | 67° |
| 2026-05-07 00:46 | 22.52526 | 55.57317 | 34834 ft | 505 kts | 67° |
| 2026-05-07 00:47 | 22.55207 | 55.64379 | 34841 ft | 506 kts | 67° |
| 2026-05-07 00:47 | 22.57853 | 55.71400 | 34836 ft | 506 kts | 68° |
| 2026-05-07 00:48 | 22.60481 | 55.78407 | 34843 ft | 506 kts | 68° |
| 2026-05-07 00:48 | 22.63117 | 55.85459 | 34847 ft | 506 kts | 68° |
| 2026-05-07 00:49 | 22.65759 | 55.92543 | 34846 ft | 506 kts | 68° |
| 2026-05-07 00:49 | 22.68368 | 55.99556 | 34845 ft | 506 kts | 68° |
| 2026-05-07 00:50 | 22.70984 | 56.06600 | 34848 ft | 506 kts | 68° |
| 2026-05-07 00:50 | 22.73612 | 56.13691 | 34854 ft | 507 kts | 68° |
| 2026-05-07 00:51 | 22.76226 | 56.20753 | 34867 ft | 506 kts | 68° |
| 2026-05-07 00:51 | 22.78847 | 56.27848 | 34872 ft | 507 kts | 68° |
| 2026-05-07 00:52 | 22.81442 | 56.34882 | 34885 ft | 507 kts | 68° |
| 2026-05-07 00:52 | 22.83476 | 56.42169 | 34907 ft | 508 kts | 78° |
| 2026-05-07 00:53 | 22.84915 | 56.49669 | 34916 ft | 507 kts | 78° |
| 2026-05-07 00:53 | 22.86334 | 56.57127 | 34929 ft | 508 kts | 78° |
| 2026-05-07 00:54 | 22.87758 | 56.64634 | 34939 ft | 507 kts | 78° |
| 2026-05-07 00:54 | 22.89174 | 56.72121 | 34936 ft | 508 kts | 78° |
| 2026-05-07 00:55 | 22.90584 | 56.79599 | 34971 ft | 508 kts | 78° |
| 2026-05-07 00:55 | 22.91997 | 56.87108 | 34989 ft | 507 kts | 78° |
| 2026-05-07 00:56 | 22.93401 | 56.94593 | 35003 ft | 509 kts | 78° |
| 2026-05-07 00:56 | 22.94799 | 57.02070 | 35024 ft | 508 kts | 78° |
| 2026-05-07 00:57 | 22.96203 | 57.09591 | 35029 ft | 507 kts | 78° |
| 2026-05-07 00:57 | 22.97592 | 57.17056 | 35040 ft | 508 kts | 78° |
| 2026-05-07 00:58 | 22.98976 | 57.24530 | 35055 ft | 507 kts | 79° |
| 2026-05-07 00:58 | 22.99313 | 57.32130 | 35058 ft | 507 kts | 96° |
| 2026-05-07 00:59 | 22.96987 | 57.43301 | 35026 ft | 506 kts | 105° |
| 2026-05-07 01:00 | 22.95174 | 57.50684 | 35010 ft | 506 kts | 106° |
| 2026-05-07 01:00 | 22.93357 | 57.58033 | 35015 ft | 506 kts | 106° |
| 2026-05-07 01:01 | 22.91540 | 57.65351 | 35013 ft | 505 kts | 106° |
| 2026-05-07 01:01 | 22.89700 | 57.72737 | 35006 ft | 507 kts | 106° |
| 2026-05-07 01:02 | 22.87845 | 57.80090 | 34999 ft | 506 kts | 107° |
| 2026-05-07 01:02 | 22.85949 | 57.87442 | 34986 ft | 506 kts | 107° |
| 2026-05-07 01:03 | 22.84063 | 57.94747 | 34971 ft | 506 kts | 107° |
| 2026-05-07 01:03 | 22.82160 | 58.02101 | 34965 ft | 506 kts | 107° |
| 2026-05-07 01:04 | 22.80268 | 58.09406 | 34962 ft | 506 kts | 106° |
| 2026-05-07 01:04 | 22.78363 | 58.16743 | 34964 ft | 506 kts | 107° |
| 2026-05-07 01:05 | 22.76462 | 58.24051 | 34963 ft | 506 kts | 106° |
| 2026-05-07 01:05 | 22.74551 | 58.31382 | 34967 ft | 505 kts | 106° |
| 2026-05-07 01:06 | 22.72658 | 58.38630 | 34959 ft | 504 kts | 106° |
| 2026-05-07 01:06 | 22.70740 | 58.45961 | 34962 ft | 505 kts | 106° |
| 2026-05-07 01:07 | 22.68819 | 58.53287 | 34958 ft | 505 kts | 106° |
| 2026-05-07 01:07 | 22.66903 | 58.60580 | 34950 ft | 505 kts | 106° |
| 2026-05-07 01:08 | 22.65291 | 58.67955 | 34945 ft | 507 kts | 103° |
| 2026-05-07 01:08 | 22.63790 | 58.75374 | 34934 ft | 504 kts | 103° |
| 2026-05-07 01:09 | 22.62269 | 58.82801 | 34967 ft | 505 kts | 103° |
| 2026-05-07 01:09 | 22.60747 | 58.90165 | 34991 ft | 503 kts | 103° |
| 2026-05-07 01:10 | 22.59213 | 58.97543 | 35020 ft | 503 kts | 103° |
| 2026-05-07 01:10 | 22.57669 | 59.04937 | 35039 ft | 504 kts | 103° |
| 2026-05-07 01:11 | 22.56124 | 59.12314 | 35073 ft | 504 kts | 103° |
| 2026-05-07 01:11 | 22.54576 | 59.19682 | 35121 ft | 503 kts | 103° |
| 2026-05-07 01:12 | 22.53011 | 59.27112 | 35176 ft | 503 kts | 103° |
| 2026-05-07 01:12 | 22.51452 | 59.34494 | 35089 ft | 502 kts | 103° |
| 2026-05-07 01:13 | 22.49896 | 59.41839 | 34981 ft | 502 kts | 103° |
| 2026-05-07 01:13 | 22.48337 | 59.49187 | 34876 ft | 503 kts | 103° |
| 2026-05-07 01:14 | 22.46769 | 59.56558 | 34834 ft | 502 kts | 103° |
| 2026-05-07 01:14 | 22.45212 | 59.63860 | 34832 ft | 501 kts | 103° |
| 2026-05-07 01:15 | 22.43642 | 59.71207 | 34818 ft | 501 kts | 103° |
| 2026-05-07 01:15 | 22.42071 | 59.78536 | 34807 ft | 501 kts | 103° |
| 2026-05-07 01:16 | 22.40508 | 59.85818 | 34813 ft | 501 kts | 103° |
| 2026-05-07 01:16 | 22.38934 | 59.93130 | 34804 ft | 501 kts | 103° |
| 2026-05-07 01:17 | 22.37345 | 60.00487 | 34802 ft | 501 kts | 103° |
| 2026-05-07 01:17 | 22.35770 | 60.07760 | 34802 ft | 501 kts | 103° |
| 2026-05-07 01:18 | 22.34177 | 60.15095 | 34802 ft | 501 kts | 103° |
| 2026-05-07 01:18 | 22.32596 | 60.22360 | 34800 ft | 499 kts | 103° |
| 2026-05-07 01:19 | 22.31010 | 60.29635 | 34798 ft | 499 kts | 103° |
| 2026-05-07 01:19 | 22.29419 | 60.36912 | 34800 ft | 500 kts | 103° |
| 2026-05-07 01:20 | 22.27819 | 60.44214 | 34804 ft | 499 kts | 103° |
| 2026-05-07 01:20 | 22.26226 | 60.51469 | 34806 ft | 499 kts | 103° |
| 2026-05-07 01:21 | 22.24625 | 60.58747 | 34806 ft | 500 kts | 103° |
| 2026-05-07 01:21 | 22.23020 | 60.66022 | 34813 ft | 498 kts | 104° |
| 2026-05-07 01:22 | 22.21417 | 60.73277 | 34815 ft | 498 kts | 104° |
| 2026-05-07 01:22 | 22.19805 | 60.80550 | 34821 ft | 498 kts | 104° |
| 2026-05-07 01:23 | 22.18206 | 60.87752 | 34818 ft | 499 kts | 104° |
| 2026-05-07 01:23 | 22.16593 | 60.95003 | 34820 ft | 497 kts | 104° |
| 2026-05-07 01:24 | 22.14970 | 61.02277 | 34817 ft | 498 kts | 104° |
| 2026-05-07 01:24 | 22.13353 | 61.09512 | 34824 ft | 496 kts | 104° |
| 2026-05-07 01:25 | 22.11738 | 61.16722 | 34822 ft | 497 kts | 104° |
| 2026-05-07 01:25 | 22.10122 | 61.23918 | 34827 ft | 496 kts | 104° |
| 2026-05-07 01:26 | 22.08499 | 61.31134 | 34823 ft | 497 kts | 104° |
| 2026-05-07 01:26 | 22.06870 | 61.38359 | 34826 ft | 496 kts | 104° |
| 2026-05-07 01:27 | 22.05232 | 61.45607 | 34826 ft | 497 kts | 104° |
| 2026-05-07 01:27 | 22.03604 | 61.52796 | 34829 ft | 496 kts | 104° |
| 2026-05-07 01:28 | 22.01964 | 61.60023 | 34828 ft | 496 kts | 104° |
| 2026-05-07 01:28 | 22.00325 | 61.67230 | 34821 ft | 496 kts | 104° |
| 2026-05-07 01:29 | 21.98688 | 61.74410 | 34821 ft | 495 kts | 104° |
| 2026-05-07 01:29 | 21.97046 | 61.81598 | 34825 ft | 496 kts | 104° |
| 2026-05-07 01:30 | 21.95400 | 61.88791 | 34822 ft | 496 kts | 104° |
| 2026-05-07 01:30 | 21.93746 | 61.96001 | 34815 ft | 496 kts | 104° |
| 2026-05-07 01:31 | 21.92095 | 62.03184 | 34814 ft | 495 kts | 104° |
| 2026-05-07 01:31 | 21.90438 | 62.10377 | 34812 ft | 495 kts | 104° |
| 2026-05-07 01:32 | 21.88778 | 62.17567 | 34821 ft | 496 kts | 104° |
| 2026-05-07 01:32 | 21.87112 | 62.24768 | 34823 ft | 496 kts | 104° |
| 2026-05-07 01:33 | 21.85450 | 62.31936 | 34829 ft | 496 kts | 104° |
| 2026-05-07 01:33 | 21.83343 | 62.39011 | 34832 ft | 496 kts | 115° |
| 2026-05-07 01:34 | 21.80261 | 62.45618 | 34831 ft | 496 kts | 117° |
| 2026-05-07 01:34 | 21.77119 | 62.52222 | 34833 ft | 496 kts | 117° |
| 2026-05-07 01:35 | 21.73954 | 62.58854 | 34835 ft | 496 kts | 117° |
| 2026-05-07 01:35 | 21.70813 | 62.65422 | 34836 ft | 498 kts | 117° |
| 2026-05-07 01:36 | 21.67643 | 62.72040 | 34834 ft | 497 kts | 117° |
| 2026-05-07 01:36 | 21.64497 | 62.78597 | 34831 ft | 497 kts | 117° |
| 2026-05-07 01:37 | 21.61339 | 62.85170 | 34835 ft | 496 kts | 117° |
| 2026-05-07 01:37 | 21.58169 | 62.91759 | 34835 ft | 497 kts | 117° |
| 2026-05-07 01:38 | 21.54991 | 62.98355 | 34838 ft | 497 kts | 117° |
| 2026-05-07 01:38 | 21.51822 | 63.04926 | 34846 ft | 498 kts | 117° |
| 2026-05-07 01:39 | 21.48629 | 63.11538 | 34851 ft | 497 kts | 117° |
| 2026-05-07 01:39 | 21.45464 | 63.18084 | 34851 ft | 498 kts | 117° |
| 2026-05-07 01:40 | 21.42269 | 63.24683 | 34850 ft | 498 kts | 117° |
| 2026-05-07 01:40 | 21.39090 | 63.31239 | 34846 ft | 497 kts | 117° |
| 2026-05-07 01:41 | 21.35889 | 63.37835 | 34845 ft | 497 kts | 117° |
| 2026-05-07 01:41 | 21.32712 | 63.44373 | 34848 ft | 497 kts | 117° |
| 2026-05-07 01:42 | 21.29509 | 63.50956 | 34852 ft | 497 kts | 117° |
| 2026-05-07 01:42 | 21.26313 | 63.57515 | 34851 ft | 497 kts | 117° |
| 2026-05-07 01:43 | 21.23120 | 63.64061 | 34849 ft | 498 kts | 117° |
| 2026-05-07 01:43 | 21.19911 | 63.70632 | 34847 ft | 498 kts | 118° |
| 2026-05-07 01:44 | 21.16703 | 63.77193 | 34847 ft | 498 kts | 118° |
| 2026-05-07 01:44 | 21.13499 | 63.83739 | 34848 ft | 498 kts | 118° |
| 2026-05-07 01:45 | 21.10277 | 63.90311 | 34848 ft | 497 kts | 118° |
| 2026-05-07 01:45 | 21.07074 | 63.96837 | 34848 ft | 497 kts | 118° |
| 2026-05-07 01:46 | 21.03870 | 64.03360 | 34849 ft | 496 kts | 118° |
| 2026-05-07 01:46 | 21.00645 | 64.09914 | 34848 ft | 497 kts | 118° |
| 2026-05-07 01:47 | 20.97433 | 64.16435 | 34849 ft | 498 kts | 118° |
| 2026-05-07 01:47 | 20.94207 | 64.22978 | 34849 ft | 498 kts | 118° |
| 2026-05-07 01:48 | 20.90978 | 64.29519 | 34851 ft | 498 kts | 118° |
| 2026-05-07 01:48 | 20.87747 | 64.36055 | 34850 ft | 498 kts | 118° |
| 2026-05-07 01:49 | 20.84509 | 64.42598 | 34851 ft | 497 kts | 118° |
| 2026-05-07 01:49 | 20.81296 | 64.49081 | 34853 ft | 497 kts | 118° |
| 2026-05-07 01:50 | 20.78048 | 64.55629 | 34856 ft | 497 kts | 118° |
| 2026-05-07 01:50 | 20.74816 | 64.62137 | 34865 ft | 498 kts | 118° |
| 2026-05-07 01:51 | 20.71585 | 64.68635 | 34867 ft | 498 kts | 118° |
| 2026-05-07 01:51 | 20.68323 | 64.75186 | 34868 ft | 498 kts | 118° |
| 2026-05-07 01:52 | 20.65093 | 64.81667 | 34868 ft | 497 kts | 118° |
| 2026-05-07 01:52 | 20.61830 | 64.88206 | 34867 ft | 497 kts | 118° |
| 2026-05-07 01:53 | 20.58576 | 64.94717 | 34868 ft | 498 kts | 118° |
| 2026-05-07 01:53 | 20.55328 | 65.01218 | 34867 ft | 497 kts | 118° |
| 2026-05-07 01:54 | 20.52138 | 65.07725 | 34868 ft | 497 kts | 117° |
| 2026-05-07 01:54 | 20.48921 | 65.14291 | 34867 ft | 497 kts | 117° |
| 2026-05-07 01:55 | 20.45741 | 65.20771 | 34867 ft | 497 kts | 118° |
| 2026-05-07 01:55 | 20.42537 | 65.27286 | 34868 ft | 497 kts | 117° |
| 2026-05-07 01:56 | 20.39320 | 65.33823 | 34867 ft | 496 kts | 118° |
| 2026-05-07 01:56 | 20.36124 | 65.40307 | 34867 ft | 497 kts | 117° |
| 2026-05-07 01:57 | 20.32907 | 65.46825 | 34867 ft | 497 kts | 117° |
| 2026-05-07 01:57 | 20.29688 | 65.53341 | 34866 ft | 497 kts | 117° |
| 2026-05-07 01:58 | 20.26475 | 65.59834 | 34867 ft | 497 kts | 118° |
| 2026-05-07 01:58 | 20.23262 | 65.66322 | 34864 ft | 497 kts | 118° |
| 2026-05-07 01:59 | 20.20020 | 65.72861 | 34862 ft | 498 kts | 118° |
| 2026-05-07 01:59 | 20.16799 | 65.79349 | 34866 ft | 496 kts | 118° |
| 2026-05-07 02:00 | 20.13574 | 65.85839 | 34865 ft | 498 kts | 118° |
| 2026-05-07 02:00 | 20.10352 | 65.92313 | 34866 ft | 497 kts | 118° |
| 2026-05-07 02:01 | 20.07124 | 65.98794 | 34868 ft | 497 kts | 118° |
| 2026-05-07 02:01 | 20.03900 | 66.05259 | 34866 ft | 497 kts | 118° |
| 2026-05-07 02:02 | 20.00655 | 66.11758 | 34869 ft | 497 kts | 118° |
| 2026-05-07 02:02 | 19.97413 | 66.18245 | 34878 ft | 496 kts | 118° |
| 2026-05-07 02:03 | 19.94184 | 66.24697 | 34878 ft | 498 kts | 118° |
| 2026-05-07 02:03 | 19.90922 | 66.31207 | 34870 ft | 497 kts | 118° |
| 2026-05-07 02:04 | 19.87671 | 66.37691 | 34864 ft | 497 kts | 118° |
| 2026-05-07 02:04 | 19.84427 | 66.44152 | 34868 ft | 498 kts | 118° |
| 2026-05-07 02:05 | 19.81172 | 66.50626 | 34871 ft | 497 kts | 118° |
| 2026-05-07 02:05 | 19.77927 | 66.57076 | 34870 ft | 496 kts | 118° |
| 2026-05-07 02:06 | 19.74672 | 66.63536 | 34873 ft | 496 kts | 118° |
| 2026-05-07 02:06 | 19.71427 | 66.69969 | 34868 ft | 496 kts | 118° |
| 2026-05-07 02:07 | 19.68173 | 66.76414 | 34868 ft | 496 kts | 118° |
| 2026-05-07 02:07 | 19.63294 | 66.86064 | 34867 ft | 496 kts | 118° |
| 2026-05-07 02:08 | 19.60018 | 66.92533 | 34867 ft | 496 kts | 118° |
| 2026-05-07 02:08 | 19.56766 | 66.98949 | 34868 ft | 496 kts | 118° |
| 2026-05-07 02:09 | 19.53515 | 67.05356 | 34869 ft | 496 kts | 118° |
| 2026-05-07 02:09 | 19.50244 | 67.11794 | 34868 ft | 496 kts | 118° |
| 2026-05-07 02:10 | 19.46970 | 67.18231 | 34867 ft | 495 kts | 118° |
| 2026-05-07 02:10 | 19.43720 | 67.24616 | 34868 ft | 495 kts | 118° |
| 2026-05-07 02:11 | 19.40450 | 67.31032 | 34870 ft | 495 kts | 118° |
| 2026-05-07 02:11 | 19.37181 | 67.37439 | 34867 ft | 494 kts | 118° |
| 2026-05-07 02:12 | 19.33897 | 67.43868 | 34870 ft | 495 kts | 118° |
| 2026-05-07 02:12 | 19.30629 | 67.50258 | 34870 ft | 495 kts | 118° |
| 2026-05-07 02:13 | 19.27372 | 67.56620 | 34869 ft | 494 kts | 118° |
| 2026-05-07 02:13 | 19.24110 | 67.62986 | 34870 ft | 494 kts | 118° |
| 2026-05-07 02:14 | 19.20829 | 67.69382 | 34865 ft | 495 kts | 119° |
| 2026-05-07 02:14 | 19.17549 | 67.75768 | 34865 ft | 494 kts | 119° |
| 2026-05-07 02:15 | 19.14261 | 67.82164 | 34858 ft | 493 kts | 119° |
| 2026-05-07 02:15 | 19.10988 | 67.88524 | 34848 ft | 493 kts | 119° |
| 2026-05-07 02:16 | 19.07720 | 67.94868 | 34849 ft | 493 kts | 119° |
| 2026-05-07 02:16 | 19.04438 | 68.01239 | 34848 ft | 491 kts | 118° |
| 2026-05-07 02:17 | 19.01249 | 68.07576 | 34850 ft | 493 kts | 118° |
| 2026-05-07 02:17 | 18.98033 | 68.13972 | 34848 ft | 492 kts | 118° |
| 2026-05-07 02:18 | 18.94811 | 68.20365 | 34850 ft | 493 kts | 118° |
| 2026-05-07 02:18 | 18.91590 | 68.26749 | 34849 ft | 492 kts | 118° |
| 2026-05-07 02:19 | 18.88362 | 68.33138 | 34857 ft | 493 kts | 118° |
| 2026-05-07 02:19 | 18.85150 | 68.39489 | 34862 ft | 492 kts | 118° |
| 2026-05-07 02:20 | 18.81931 | 68.45843 | 34864 ft | 492 kts | 118° |
| 2026-05-07 02:20 | 18.78705 | 68.52208 | 34869 ft | 493 kts | 118° |
| 2026-05-07 02:21 | 18.75465 | 68.58592 | 34869 ft | 492 kts | 118° |
| 2026-05-07 02:21 | 18.72225 | 68.64969 | 34871 ft | 493 kts | 118° |
| 2026-05-07 02:22 | 18.68987 | 68.71336 | 34868 ft | 492 kts | 118° |
| 2026-05-07 02:22 | 18.65748 | 68.77698 | 34869 ft | 492 kts | 118° |
| 2026-05-07 02:23 | 18.62521 | 68.84030 | 34867 ft | 491 kts | 118° |
| 2026-05-07 02:23 | 18.59280 | 68.90382 | 34867 ft | 493 kts | 118° |
| 2026-05-07 02:24 | 18.56032 | 68.96742 | 34864 ft | 492 kts | 118° |
| 2026-05-07 02:24 | 18.52798 | 69.03068 | 34861 ft | 491 kts | 118° |
| 2026-05-07 02:25 | 18.49569 | 69.09378 | 34860 ft | 492 kts | 118° |
| 2026-05-07 02:25 | 18.46320 | 69.15720 | 34860 ft | 492 kts | 118° |
| 2026-05-07 02:26 | 18.43081 | 69.22037 | 34860 ft | 492 kts | 118° |
| 2026-05-07 02:26 | 18.39839 | 69.28352 | 34859 ft | 492 kts | 118° |
| 2026-05-07 02:27 | 18.36711 | 69.34776 | 34858 ft | 492 kts | 116° |
| 2026-05-07 02:27 | 18.33758 | 69.41244 | 34857 ft | 491 kts | 116° |
| 2026-05-07 02:28 | 18.30783 | 69.47723 | 34853 ft | 492 kts | 116° |
| 2026-05-07 02:28 | 18.27814 | 69.54165 | 34849 ft | 492 kts | 116° |
| 2026-05-07 02:29 | 18.24817 | 69.60651 | 34849 ft | 491 kts | 116° |
| 2026-05-07 02:29 | 18.21839 | 69.67084 | 34846 ft | 490 kts | 116° |
| 2026-05-07 02:30 | 18.18839 | 69.73553 | 34847 ft | 491 kts | 116° |
| 2026-05-07 02:30 | 18.15855 | 69.79981 | 34847 ft | 492 kts | 116° |
| 2026-05-07 02:31 | 18.12861 | 69.86421 | 34848 ft | 492 kts | 116° |
| 2026-05-07 02:31 | 18.09871 | 69.92847 | 34848 ft | 491 kts | 117° |
| 2026-05-07 02:32 | 18.06858 | 69.99313 | 34848 ft | 491 kts | 116° |
| 2026-05-07 02:32 | 18.03872 | 70.05718 | 34847 ft | 490 kts | 116° |
| 2026-05-07 02:33 | 18.00876 | 70.12135 | 34846 ft | 490 kts | 116° |
| 2026-05-07 02:33 | 17.97867 | 70.18573 | 34849 ft | 491 kts | 116° |
| 2026-05-07 02:34 | 17.94867 | 70.24985 | 34854 ft | 491 kts | 116° |
| 2026-05-07 02:34 | 17.91862 | 70.31403 | 34860 ft | 491 kts | 116° |
| 2026-05-07 02:35 | 17.88845 | 70.37837 | 34860 ft | 492 kts | 116° |
| 2026-05-07 02:35 | 17.85831 | 70.44261 | 34858 ft | 493 kts | 117° |
| 2026-05-07 02:36 | 17.82823 | 70.50664 | 34857 ft | 492 kts | 117° |
| 2026-05-07 02:36 | 17.79788 | 70.57117 | 34859 ft | 492 kts | 116° |
| 2026-05-07 02:37 | 17.76755 | 70.63552 | 34854 ft | 493 kts | 116° |
| 2026-05-07 02:37 | 17.73723 | 70.69978 | 34852 ft | 491 kts | 117° |
| 2026-05-07 02:38 | 17.70690 | 70.76397 | 34851 ft | 492 kts | 117° |
| 2026-05-07 02:38 | 17.67676 | 70.82772 | 34850 ft | 492 kts | 117° |
| 2026-05-07 02:39 | 17.64625 | 70.89217 | 34847 ft | 493 kts | 117° |
| 2026-05-07 02:39 | 17.61579 | 70.95644 | 34847 ft | 494 kts | 117° |
| 2026-05-07 02:40 | 17.58532 | 71.02069 | 34847 ft | 493 kts | 117° |
| 2026-05-07 02:40 | 17.55475 | 71.08506 | 34847 ft | 494 kts | 117° |
| 2026-05-07 02:41 | 17.52422 | 71.14932 | 34845 ft | 492 kts | 117° |
| 2026-05-07 02:41 | 17.49379 | 71.21327 | 34846 ft | 492 kts | 117° |
| 2026-05-07 02:42 | 17.46316 | 71.27759 | 34846 ft | 493 kts | 117° |
| 2026-05-07 02:42 | 17.43277 | 71.34132 | 34847 ft | 493 kts | 117° |
| 2026-05-07 02:43 | 17.40200 | 71.40580 | 34845 ft | 493 kts | 117° |
| 2026-05-07 02:43 | 17.37135 | 71.46995 | 34845 ft | 494 kts | 117° |
| 2026-05-07 02:44 | 17.34075 | 71.53397 | 34845 ft | 494 kts | 117° |
| 2026-05-07 02:44 | 17.30992 | 71.59837 | 34845 ft | 493 kts | 117° |
| 2026-05-07 02:45 | 17.27934 | 71.66219 | 34843 ft | 493 kts | 117° |
| 2026-05-07 02:45 | 17.24857 | 71.72636 | 34841 ft | 493 kts | 117° |
| 2026-05-07 02:46 | 17.21750 | 71.79108 | 34843 ft | 494 kts | 117° |
| 2026-05-07 02:46 | 17.18682 | 71.85492 | 34845 ft | 494 kts | 117° |
| 2026-05-07 02:47 | 17.15587 | 71.91926 | 34854 ft | 494 kts | 117° |
| 2026-05-07 02:47 | 17.12508 | 71.98321 | 34863 ft | 495 kts | 117° |
| 2026-05-07 02:48 | 17.09406 | 72.04755 | 34866 ft | 494 kts | 117° |
| 2026-05-07 02:48 | 17.06370 | 72.11179 | 34866 ft | 493 kts | 117° |
| 2026-05-07 02:49 | 17.03353 | 72.17615 | 34867 ft | 494 kts | 117° |
| 2026-05-07 02:49 | 17.00328 | 72.24057 | 34864 ft | 494 kts | 117° |
| 2026-05-07 02:50 | 16.97312 | 72.30469 | 34865 ft | 495 kts | 117° |
| 2026-05-07 02:50 | 16.94282 | 72.36903 | 34863 ft | 495 kts | 117° |
| 2026-05-07 02:51 | 16.91241 | 72.43353 | 34862 ft | 494 kts | 117° |
| 2026-05-07 02:51 | 16.88201 | 72.49796 | 34859 ft | 494 kts | 117° |
| 2026-05-07 02:52 | 16.85174 | 72.56201 | 34858 ft | 493 kts | 117° |
| 2026-05-07 02:52 | 16.82146 | 72.62605 | 34854 ft | 493 kts | 117° |
| 2026-05-07 02:53 | 16.79107 | 72.69022 | 34850 ft | 494 kts | 117° |
| 2026-05-07 02:53 | 16.76056 | 72.75462 | 34846 ft | 494 kts | 117° |
| 2026-05-07 02:54 | 16.73026 | 72.81849 | 34850 ft | 494 kts | 117° |
| 2026-05-07 02:54 | 16.69981 | 72.88263 | 34845 ft | 495 kts | 117° |
| 2026-05-07 02:55 | 16.66919 | 72.94706 | 34841 ft | 495 kts | 117° |
| 2026-05-07 02:55 | 16.63868 | 73.01121 | 34838 ft | 494 kts | 117° |
| 2026-05-07 02:56 | 16.60828 | 73.07504 | 34843 ft | 494 kts | 117° |
| 2026-05-07 02:56 | 16.57744 | 73.13908 | 34836 ft | 493 kts | 118° |
| 2026-05-07 02:57 | 16.54596 | 73.20259 | 34843 ft | 494 kts | 118° |
| 2026-05-07 02:57 | 16.51445 | 73.26617 | 34841 ft | 494 kts | 118° |
| 2026-05-07 02:58 | 16.48308 | 73.32947 | 34848 ft | 494 kts | 118° |
| 2026-05-07 02:58 | 16.45157 | 73.39301 | 34863 ft | 495 kts | 118° |
| 2026-05-07 02:59 | 16.41991 | 73.45679 | 34876 ft | 494 kts | 118° |
| 2026-05-07 02:59 | 16.38846 | 73.52013 | 34887 ft | 494 kts | 118° |
| 2026-05-07 03:00 | 16.35709 | 73.58355 | 34884 ft | 493 kts | 117° |
| 2026-05-07 03:00 | 16.32639 | 73.64745 | 34875 ft | 494 kts | 117° |
| 2026-05-07 03:01 | 16.29562 | 73.71146 | 34873 ft | 494 kts | 117° |
| 2026-05-07 03:01 | 16.26489 | 73.77526 | 34877 ft | 494 kts | 117° |
| 2026-05-07 03:02 | 16.23404 | 73.83921 | 34910 ft | 493 kts | 117° |
| 2026-05-07 03:02 | 16.20331 | 73.90283 | 34938 ft | 494 kts | 117° |
| 2026-05-07 03:03 | 16.17262 | 73.96658 | 34974 ft | 493 kts | 118° |
| 2026-05-07 03:03 | 16.14177 | 74.03069 | 34997 ft | 494 kts | 118° |
| 2026-05-07 03:04 | 16.11118 | 74.09418 | 34989 ft | 492 kts | 118° |
| 2026-05-07 03:04 | 16.08039 | 74.15801 | 34993 ft | 494 kts | 118° |
| 2026-05-07 03:05 | 16.04945 | 74.22208 | 34997 ft | 493 kts | 118° |
| 2026-05-07 03:05 | 16.01876 | 74.28558 | 35006 ft | 494 kts | 118° |
| 2026-05-07 03:06 | 15.98795 | 74.34930 | 35011 ft | 493 kts | 118° |
| 2026-05-07 03:06 | 15.95723 | 74.41273 | 35011 ft | 493 kts | 118° |
| 2026-05-07 03:07 | 15.92647 | 74.47621 | 35015 ft | 493 kts | 117° |
| 2026-05-07 03:07 | 15.89568 | 74.53970 | 35015 ft | 492 kts | 117° |
| 2026-05-07 03:08 | 15.86468 | 74.60357 | 35009 ft | 493 kts | 117° |
| 2026-05-07 03:08 | 15.83993 | 74.66996 | 35006 ft | 494 kts | 110° |
| 2026-05-07 03:09 | 15.81758 | 74.73714 | 35000 ft | 493 kts | 110° |
| 2026-05-07 03:09 | 15.79512 | 74.80452 | 34999 ft | 493 kts | 110° |
| 2026-05-07 03:10 | 15.77271 | 74.87156 | 35000 ft | 493 kts | 110° |
| 2026-05-07 03:10 | 15.75023 | 74.93872 | 34999 ft | 493 kts | 110° |
| 2026-05-07 03:11 | 15.72774 | 75.00578 | 35003 ft | 493 kts | 110° |
| 2026-05-07 03:11 | 15.70529 | 75.07264 | 34997 ft | 493 kts | 110° |
| 2026-05-07 03:12 | 15.68252 | 75.14039 | 34988 ft | 495 kts | 110° |
| 2026-05-07 03:12 | 15.65996 | 75.20740 | 34973 ft | 494 kts | 110° |
| 2026-05-07 03:13 | 15.63732 | 75.27460 | 34970 ft | 493 kts | 110° |
| 2026-05-07 03:13 | 15.61463 | 75.34187 | 34971 ft | 493 kts | 110° |
| 2026-05-07 03:14 | 15.59202 | 75.40882 | 34971 ft | 493 kts | 110° |
| 2026-05-07 03:15 | 15.55804 | 75.50929 | 34976 ft | 492 kts | 110° |
| 2026-05-07 03:15 | 15.53549 | 75.57590 | 34974 ft | 493 kts | 110° |
| 2026-05-07 03:16 | 15.51267 | 75.64319 | 34980 ft | 493 kts | 110° |
| 2026-05-07 03:16 | 15.48995 | 75.71014 | 34974 ft | 492 kts | 110° |
| 2026-05-07 03:17 | 15.46727 | 75.77689 | 34981 ft | 492 kts | 110° |
| 2026-05-07 03:17 | 15.44443 | 75.84405 | 34981 ft | 492 kts | 110° |
| 2026-05-07 03:18 | 15.42186 | 75.91031 | 34970 ft | 490 kts | 110° |
| 2026-05-07 03:18 | 15.39911 | 75.97706 | 34972 ft | 492 kts | 110° |
| 2026-05-07 03:19 | 15.37632 | 76.04382 | 34968 ft | 491 kts | 110° |
| 2026-05-07 03:19 | 15.35350 | 76.11061 | 34966 ft | 492 kts | 110° |
| 2026-05-07 03:20 | 15.33081 | 76.17696 | 34962 ft | 491 kts | 110° |
| 2026-05-07 03:20 | 15.30801 | 76.24355 | 34961 ft | 491 kts | 110° |
| 2026-05-07 03:21 | 15.28511 | 76.31036 | 34962 ft | 489 kts | 110° |
| 2026-05-07 03:21 | 15.26247 | 76.37635 | 34970 ft | 489 kts | 110° |
| 2026-05-07 03:22 | 15.23954 | 76.44308 | 34975 ft | 489 kts | 110° |
| 2026-05-07 03:22 | 15.21675 | 76.50937 | 34984 ft | 489 kts | 110° |
| 2026-05-07 03:23 | 15.19410 | 76.57519 | 34975 ft | 488 kts | 110° |
| 2026-05-07 03:23 | 15.17123 | 76.64153 | 34977 ft | 488 kts | 110° |
| 2026-05-07 03:24 | 15.14833 | 76.70793 | 34971 ft | 488 kts | 111° |
| 2026-05-07 03:24 | 15.12543 | 76.77424 | 34969 ft | 487 kts | 111° |
| 2026-05-07 03:25 | 15.10273 | 76.83992 | 34962 ft | 487 kts | 111° |
| 2026-05-07 03:25 | 15.07998 | 76.90565 | 34948 ft | 486 kts | 111° |
| 2026-05-07 03:26 | 15.05714 | 76.97159 | 34939 ft | 487 kts | 111° |
| 2026-05-07 03:26 | 15.03427 | 77.03751 | 34934 ft | 487 kts | 111° |
| 2026-05-07 03:27 | 15.01140 | 77.10339 | 34936 ft | 487 kts | 111° |
| 2026-05-07 03:27 | 14.98863 | 77.16891 | 34938 ft | 487 kts | 111° |
| 2026-05-07 03:28 | 14.96561 | 77.23511 | 34941 ft | 487 kts | 111° |
| 2026-05-07 03:28 | 14.94270 | 77.30089 | 34938 ft | 487 kts | 110° |
| 2026-05-07 03:29 | 14.91981 | 77.36655 | 34935 ft | 487 kts | 111° |
| 2026-05-07 03:29 | 14.89687 | 77.43230 | 34929 ft | 486 kts | 111° |
| 2026-05-07 03:30 | 14.87384 | 77.49821 | 34925 ft | 487 kts | 111° |
| 2026-05-07 03:30 | 14.85073 | 77.56432 | 34926 ft | 487 kts | 110° |
| 2026-05-07 03:31 | 14.82768 | 77.63018 | 34922 ft | 487 kts | 110° |
| 2026-05-07 03:31 | 14.80465 | 77.69590 | 34920 ft | 488 kts | 111° |
| 2026-05-07 03:32 | 14.78156 | 77.76172 | 34918 ft | 488 kts | 111° |
| 2026-05-07 03:32 | 14.75834 | 77.82787 | 34917 ft | 487 kts | 111° |
| 2026-05-07 03:33 | 14.73534 | 77.89329 | 34912 ft | 488 kts | 111° |
| 2026-05-07 03:33 | 14.71214 | 77.95925 | 34914 ft | 487 kts | 111° |
| 2026-05-07 03:34 | 14.68890 | 78.02522 | 34918 ft | 488 kts | 111° |
| 2026-05-07 03:34 | 14.66583 | 78.09066 | 34916 ft | 487 kts | 111° |
| 2026-05-07 03:35 | 14.64257 | 78.15659 | 34914 ft | 488 kts | 111° |
| 2026-05-07 03:35 | 14.61944 | 78.22206 | 34907 ft | 488 kts | 110° |
| 2026-05-07 03:36 | 14.59624 | 78.28768 | 34902 ft | 487 kts | 111° |
| 2026-05-07 03:36 | 14.57292 | 78.35357 | 34906 ft | 486 kts | 111° |
| 2026-05-07 03:37 | 14.54974 | 78.41899 | 34910 ft | 487 kts | 111° |
| 2026-05-07 03:37 | 14.52654 | 78.48441 | 34913 ft | 486 kts | 111° |
| 2026-05-07 03:38 | 14.50333 | 78.54977 | 34912 ft | 486 kts | 111° |
| 2026-05-07 03:38 | 14.48014 | 78.61504 | 34907 ft | 486 kts | 110° |
| 2026-05-07 03:39 | 14.45680 | 78.68064 | 34895 ft | 486 kts | 111° |
| 2026-05-07 03:39 | 14.43342 | 78.74631 | 34894 ft | 486 kts | 111° |
| 2026-05-07 03:40 | 14.41030 | 78.81117 | 34892 ft | 486 kts | 111° |
| 2026-05-07 03:40 | 14.38702 | 78.87643 | 34888 ft | 486 kts | 111° |
| 2026-05-07 03:41 | 14.36361 | 78.94198 | 34886 ft | 485 kts | 111° |
| 2026-05-07 03:41 | 14.34026 | 79.00730 | 34884 ft | 486 kts | 111° |
| 2026-05-07 03:42 | 14.31698 | 79.07236 | 34881 ft | 485 kts | 111° |
| 2026-05-07 03:42 | 14.29364 | 79.13754 | 34874 ft | 485 kts | 111° |
| 2026-05-07 03:43 | 14.27027 | 79.20270 | 34872 ft | 485 kts | 111° |
| 2026-05-07 03:43 | 14.24733 | 79.26666 | 34869 ft | 484 kts | 111° |
| 2026-05-07 03:44 | 14.22388 | 79.33192 | 34874 ft | 485 kts | 111° |
| 2026-05-07 03:44 | 14.20060 | 79.39670 | 34875 ft | 485 kts | 111° |
| 2026-05-07 03:45 | 14.17713 | 79.46189 | 34879 ft | 485 kts | 111° |
| 2026-05-07 03:45 | 14.15376 | 79.52678 | 34885 ft | 484 kts | 111° |
| 2026-05-07 03:46 | 14.13036 | 79.59168 | 34881 ft | 484 kts | 111° |
| 2026-05-07 03:46 | 14.10682 | 79.65691 | 34877 ft | 484 kts | 111° |
| 2026-05-07 03:47 | 14.08338 | 79.72180 | 34867 ft | 484 kts | 112° |
| 2026-05-07 03:47 | 14.06003 | 79.78638 | 34859 ft | 483 kts | 111° |
| 2026-05-07 03:48 | 14.03661 | 79.85108 | 34857 ft | 482 kts | 111° |
| 2026-05-07 03:48 | 14.01326 | 79.91554 | 34854 ft | 481 kts | 112° |
| 2026-05-07 03:49 | 13.98977 | 79.98030 | 34852 ft | 481 kts | 112° |
| 2026-05-07 03:49 | 13.96623 | 80.04518 | 34847 ft | 480 kts | 111° |
| 2026-05-07 03:50 | 13.94284 | 80.10956 | 34847 ft | 481 kts | 112° |
| 2026-05-07 03:50 | 13.91937 | 80.17409 | 34847 ft | 481 kts | 112° |
| 2026-05-07 03:51 | 13.89603 | 80.23823 | 34842 ft | 480 kts | 112° |
| 2026-05-07 03:51 | 13.87268 | 80.30233 | 34840 ft | 480 kts | 112° |
| 2026-05-07 03:52 | 13.84922 | 80.36666 | 34833 ft | 480 kts | 112° |
| 2026-05-07 03:52 | 13.82577 | 80.43093 | 34836 ft | 480 kts | 112° |
| 2026-05-07 03:53 | 13.80244 | 80.49479 | 34844 ft | 480 kts | 112° |
| 2026-05-07 03:53 | 13.77891 | 80.55914 | 34845 ft | 481 kts | 112° |
| 2026-05-07 03:54 | 13.75546 | 80.62322 | 34856 ft | 481 kts | 112° |
| 2026-05-07 03:54 | 13.73180 | 80.68781 | 34858 ft | 480 kts | 112° |
| 2026-05-07 03:55 | 13.70834 | 80.75179 | 34860 ft | 480 kts | 112° |
| 2026-05-07 03:55 | 13.68480 | 80.81596 | 34859 ft | 479 kts | 112° |
| 2026-05-07 03:56 | 13.66126 | 80.88005 | 34861 ft | 479 kts | 112° |
| 2026-05-07 03:56 | 13.63768 | 80.94418 | 34867 ft | 480 kts | 112° |
| 2026-05-07 03:57 | 13.61414 | 81.00817 | 34868 ft | 479 kts | 112° |
| 2026-05-07 03:57 | 13.59067 | 81.07190 | 34869 ft | 479 kts | 112° |
| 2026-05-07 03:58 | 13.56706 | 81.13594 | 34866 ft | 479 kts | 112° |
| 2026-05-07 03:58 | 13.54342 | 81.20003 | 34860 ft | 479 kts | 112° |
| 2026-05-07 03:59 | 13.51988 | 81.26376 | 34855 ft | 479 kts | 112° |
| 2026-05-07 03:59 | 13.49630 | 81.32756 | 34850 ft | 479 kts | 112° |
| 2026-05-07 04:00 | 13.47275 | 81.39123 | 34848 ft | 478 kts | 112° |
| 2026-05-07 04:00 | 13.44914 | 81.45502 | 34847 ft | 478 kts | 112° |
| 2026-05-07 04:01 | 13.42547 | 81.51890 | 34848 ft | 478 kts | 112° |
| 2026-05-07 04:01 | 13.40186 | 81.58254 | 34847 ft | 478 kts | 112° |
| 2026-05-07 04:02 | 13.37824 | 81.64619 | 34847 ft | 479 kts | 112° |
| 2026-05-07 04:02 | 13.35449 | 81.71009 | 34848 ft | 478 kts | 112° |
| 2026-05-07 04:03 | 13.33080 | 81.77380 | 34847 ft | 478 kts | 112° |
| 2026-05-07 04:03 | 13.30712 | 81.83744 | 34847 ft | 478 kts | 112° |
| 2026-05-07 04:04 | 13.28341 | 81.90109 | 34846 ft | 478 kts | 112° |
| 2026-05-07 04:04 | 13.25979 | 81.96445 | 34847 ft | 477 kts | 112° |
| 2026-05-07 04:05 | 13.23608 | 82.02797 | 34851 ft | 477 kts | 112° |
| 2026-05-07 04:05 | 13.21228 | 82.09171 | 34860 ft | 478 kts | 112° |
| 2026-05-07 04:06 | 13.18864 | 82.15495 | 34863 ft | 478 kts | 112° |
| 2026-05-07 04:06 | 13.16485 | 82.21854 | 34864 ft | 478 kts | 112° |
| 2026-05-07 04:07 | 13.14099 | 82.28226 | 34864 ft | 477 kts | 112° |
| 2026-05-07 04:07 | 13.11719 | 82.34578 | 34866 ft | 477 kts | 112° |
| 2026-05-07 04:08 | 13.09346 | 82.40905 | 34866 ft | 477 kts | 112° |
| 2026-05-07 04:08 | 13.06967 | 82.47242 | 34865 ft | 477 kts | 112° |
| 2026-05-07 04:09 | 13.04592 | 82.53565 | 34865 ft | 477 kts | 112° |
| 2026-05-07 04:09 | 13.02211 | 82.59897 | 34865 ft | 477 kts | 112° |
| 2026-05-07 04:10 | 12.99818 | 82.66257 | 34867 ft | 477 kts | 112° |
| 2026-05-07 04:10 | 12.97435 | 82.72584 | 34866 ft | 477 kts | 112° |
| 2026-05-07 04:11 | 12.95044 | 82.78928 | 34865 ft | 477 kts | 112° |
| 2026-05-07 04:11 | 12.92662 | 82.85241 | 34866 ft | 477 kts | 112° |
| 2026-05-07 04:12 | 12.90267 | 82.91584 | 34865 ft | 477 kts | 112° |
| 2026-05-07 04:12 | 12.87888 | 82.97880 | 34867 ft | 476 kts | 112° |
| 2026-05-07 04:13 | 12.85492 | 83.04217 | 34860 ft | 476 kts | 112° |
| 2026-05-07 04:13 | 12.83106 | 83.10520 | 34853 ft | 476 kts | 112° |
| 2026-05-07 04:14 | 12.80715 | 83.16832 | 34850 ft | 476 kts | 112° |
| 2026-05-07 04:14 | 12.78326 | 83.23132 | 34849 ft | 476 kts | 112° |
| 2026-05-07 04:15 | 12.75921 | 83.29471 | 34848 ft | 475 kts | 112° |
| 2026-05-07 04:15 | 12.73541 | 83.35738 | 34848 ft | 475 kts | 112° |
| 2026-05-07 04:16 | 12.71143 | 83.42047 | 34847 ft | 475 kts | 112° |
| 2026-05-07 04:16 | 12.68756 | 83.48324 | 34848 ft | 475 kts | 112° |
| 2026-05-07 04:17 | 12.66349 | 83.54630 | 34843 ft | 474 kts | 114° |
| 2026-05-07 04:17 | 12.63524 | 83.60700 | 34847 ft | 473 kts | 117° |
| 2026-05-07 04:18 | 12.60635 | 83.66727 | 34851 ft | 473 kts | 117° |
| 2026-05-07 04:18 | 12.57742 | 83.72748 | 34855 ft | 473 kts | 117° |
| 2026-05-07 04:19 | 12.54842 | 83.78777 | 34856 ft | 472 kts | 117° |
| 2026-05-07 04:19 | 12.51945 | 83.84794 | 34858 ft | 472 kts | 117° |
| 2026-05-07 04:20 | 12.49035 | 83.90832 | 34857 ft | 471 kts | 117° |
| 2026-05-07 04:20 | 12.46148 | 83.96819 | 34857 ft | 471 kts | 117° |
| 2026-05-07 04:21 | 12.41813 | 84.05798 | 34863 ft | 471 kts | 117° |
| 2026-05-07 04:21 | 12.38911 | 84.11806 | 34868 ft | 472 kts | 117° |
| 2026-05-07 04:22 | 12.36005 | 84.17814 | 34867 ft | 473 kts | 117° |
| 2026-05-07 04:22 | 12.33075 | 84.23872 | 34867 ft | 474 kts | 117° |
| 2026-05-07 04:23 | 12.30166 | 84.29880 | 34867 ft | 474 kts | 117° |
| 2026-05-07 04:23 | 12.27239 | 84.35921 | 34866 ft | 472 kts | 117° |
| 2026-05-07 04:24 | 12.24350 | 84.41880 | 34867 ft | 472 kts | 117° |
| 2026-05-07 04:24 | 12.21432 | 84.47897 | 34867 ft | 473 kts | 117° |
| 2026-05-07 04:25 | 12.18518 | 84.53899 | 34866 ft | 472 kts | 117° |
| 2026-05-07 04:25 | 12.15601 | 84.59904 | 34867 ft | 473 kts | 117° |
| 2026-05-07 04:26 | 12.12660 | 84.65953 | 34867 ft | 473 kts | 117° |
| 2026-05-07 04:26 | 12.09751 | 84.71933 | 34867 ft | 473 kts | 117° |
| 2026-05-07 04:27 | 12.06818 | 84.77961 | 34868 ft | 472 kts | 117° |
| 2026-05-07 04:27 | 12.03915 | 84.83921 | 34868 ft | 472 kts | 116° |
| 2026-05-07 04:28 | 12.00980 | 84.89943 | 34868 ft | 472 kts | 116° |
| 2026-05-07 04:28 | 11.98051 | 84.95950 | 34867 ft | 474 kts | 116° |
| 2026-05-07 04:29 | 11.95106 | 85.01984 | 34858 ft | 473 kts | 116° |
| 2026-05-07 04:29 | 11.92182 | 85.07972 | 34849 ft | 473 kts | 116° |
| 2026-05-07 04:30 | 11.89262 | 85.13947 | 34848 ft | 472 kts | 116° |
| 2026-05-07 04:30 | 11.86311 | 85.19981 | 34849 ft | 473 kts | 116° |
| 2026-05-07 04:31 | 11.83381 | 85.25970 | 34846 ft | 471 kts | 116° |
| 2026-05-07 04:31 | 11.80447 | 85.31963 | 34847 ft | 472 kts | 116° |
| 2026-05-07 04:32 | 11.77522 | 85.37934 | 34846 ft | 472 kts | 116° |
| 2026-05-07 04:32 | 11.74589 | 85.43916 | 34847 ft | 472 kts | 116° |
| 2026-05-07 04:33 | 11.71658 | 85.49892 | 34846 ft | 472 kts | 116° |
| 2026-05-07 04:33 | 11.68730 | 85.55859 | 34847 ft | 472 kts | 116° |
| 2026-05-07 04:34 | 11.65790 | 85.61843 | 34848 ft | 471 kts | 116° |
| 2026-05-07 04:34 | 11.62879 | 85.67767 | 34848 ft | 471 kts | 116° |
| 2026-05-07 04:35 | 11.59936 | 85.73752 | 34848 ft | 471 kts | 116° |
| 2026-05-07 04:35 | 11.57000 | 85.79718 | 34849 ft | 471 kts | 116° |
| 2026-05-07 04:36 | 11.54065 | 85.85679 | 34847 ft | 471 kts | 116° |
| 2026-05-07 04:36 | 11.51143 | 85.91609 | 34850 ft | 471 kts | 116° |
| 2026-05-07 04:37 | 11.48190 | 85.97599 | 34861 ft | 471 kts | 116° |
| 2026-05-07 04:37 | 11.45262 | 86.03533 | 34867 ft | 471 kts | 116° |
| 2026-05-07 04:38 | 11.42320 | 86.09494 | 34869 ft | 471 kts | 116° |
| 2026-05-07 04:38 | 11.39373 | 86.15461 | 34868 ft | 471 kts | 116° |
| 2026-05-07 04:39 | 11.36429 | 86.21418 | 34868 ft | 471 kts | 116° |
| 2026-05-07 04:39 | 11.33505 | 86.27331 | 34868 ft | 471 kts | 116° |
| 2026-05-07 04:40 | 11.30548 | 86.33306 | 34868 ft | 471 kts | 116° |
| 2026-05-07 04:40 | 11.27601 | 86.39258 | 34865 ft | 470 kts | 116° |
| 2026-05-07 04:41 | 11.24657 | 86.45200 | 34860 ft | 471 kts | 116° |
| 2026-05-07 04:41 | 11.21729 | 86.51108 | 34855 ft | 470 kts | 116° |
| 2026-05-07 04:42 | 11.18765 | 86.57082 | 34859 ft | 471 kts | 116° |
| 2026-05-07 04:42 | 11.15817 | 86.63021 | 34857 ft | 471 kts | 116° |
| 2026-05-07 04:43 | 11.12848 | 86.69000 | 34854 ft | 473 kts | 116° |
| 2026-05-07 04:43 | 11.09881 | 86.74971 | 34851 ft | 472 kts | 116° |
| 2026-05-07 04:44 | 11.06920 | 86.80927 | 34848 ft | 472 kts | 116° |
| 2026-05-07 04:44 | 11.03965 | 86.86866 | 34842 ft | 471 kts | 116° |
| 2026-05-07 04:45 | 11.00997 | 86.92828 | 34849 ft | 474 kts | 116° |
| 2026-05-07 04:45 | 10.97990 | 86.98865 | 34849 ft | 474 kts | 116° |
| 2026-05-07 04:46 | 10.95018 | 87.04829 | 34845 ft | 473 kts | 116° |
| 2026-05-07 04:46 | 10.92040 | 87.10799 | 34852 ft | 474 kts | 116° |
| 2026-05-07 04:47 | 10.89063 | 87.16765 | 34848 ft | 473 kts | 116° |
| 2026-05-07 04:47 | 10.86086 | 87.22729 | 34847 ft | 471 kts | 116° |
| 2026-05-07 04:48 | 10.83118 | 87.28670 | 34847 ft | 473 kts | 116° |
| 2026-05-07 04:48 | 10.80132 | 87.34643 | 34846 ft | 472 kts | 116° |
| 2026-05-07 04:49 | 10.77167 | 87.40572 | 34847 ft | 472 kts | 116° |
| 2026-05-07 04:49 | 10.74190 | 87.46520 | 34846 ft | 472 kts | 116° |
| 2026-05-07 04:50 | 10.71210 | 87.52472 | 34853 ft | 473 kts | 116° |
| 2026-05-07 04:50 | 10.68226 | 87.58427 | 34856 ft | 473 kts | 116° |
| 2026-05-07 04:51 | 10.65252 | 87.64359 | 34858 ft | 473 kts | 116° |
| 2026-05-07 04:51 | 10.62268 | 87.70308 | 34863 ft | 473 kts | 116° |
| 2026-05-07 04:52 | 10.59272 | 87.76279 | 34863 ft | 471 kts | 116° |
| 2026-05-07 04:52 | 10.56296 | 87.82205 | 34869 ft | 473 kts | 116° |
| 2026-05-07 04:53 | 10.53312 | 87.88144 | 34869 ft | 473 kts | 116° |
| 2026-05-07 04:53 | 10.50318 | 87.94098 | 34868 ft | 473 kts | 116° |
| 2026-05-07 04:54 | 10.47326 | 88.00047 | 34868 ft | 473 kts | 116° |
| 2026-05-07 04:54 | 10.44334 | 88.05992 | 34868 ft | 474 kts | 116° |
| 2026-05-07 04:55 | 10.41350 | 88.11916 | 34868 ft | 472 kts | 116° |
| 2026-05-07 04:55 | 10.38360 | 88.17851 | 34867 ft | 472 kts | 116° |
| 2026-05-07 04:56 | 10.35372 | 88.23777 | 34866 ft | 473 kts | 116° |
| 2026-05-07 04:56 | 10.32377 | 88.29716 | 34863 ft | 474 kts | 116° |
| 2026-05-07 04:57 | 10.29359 | 88.35694 | 34855 ft | 472 kts | 116° |
| 2026-05-07 04:57 | 10.26364 | 88.41625 | 34850 ft | 472 kts | 116° |
| 2026-05-07 04:58 | 10.23380 | 88.47532 | 34843 ft | 471 kts | 116° |
| 2026-05-07 04:58 | 10.20397 | 88.53433 | 34844 ft | 472 kts | 116° |
| 2026-05-07 04:59 | 10.17602 | 88.59469 | 34844 ft | 471 kts | 114° |
| 2026-05-07 04:59 | 10.14868 | 88.65486 | 34846 ft | 470 kts | 114° |
| 2026-05-07 05:00 | 10.12123 | 88.71502 | 34850 ft | 471 kts | 114° |
| 2026-05-07 05:00 | 10.09374 | 88.77507 | 34846 ft | 468 kts | 114° |
| 2026-05-07 05:01 | 10.06636 | 88.83481 | 34846 ft | 468 kts | 114° |
| 2026-05-07 05:01 | 10.03899 | 88.89445 | 34846 ft | 468 kts | 115° |
| 2026-05-07 05:02 | 10.01148 | 88.95437 | 34847 ft | 468 kts | 114° |
| 2026-05-07 05:02 | 9.98391 | 89.01434 | 34847 ft | 468 kts | 115° |
| 2026-05-07 05:03 | 9.95644 | 89.07407 | 34846 ft | 469 kts | 115° |
| 2026-05-07 05:03 | 9.92892 | 89.13387 | 34846 ft | 468 kts | 115° |
| 2026-05-07 05:04 | 9.90149 | 89.19346 | 34846 ft | 468 kts | 115° |
| 2026-05-07 05:04 | 9.87396 | 89.25320 | 34846 ft | 467 kts | 114° |
| 2026-05-07 05:05 | 9.84632 | 89.31317 | 34846 ft | 469 kts | 115° |
| 2026-05-07 05:05 | 9.81871 | 89.37303 | 34851 ft | 469 kts | 115° |
| 2026-05-07 05:06 | 9.79110 | 89.43286 | 34861 ft | 468 kts | 115° |
| 2026-05-07 05:06 | 9.76343 | 89.49279 | 34867 ft | 469 kts | 115° |
| 2026-05-07 05:07 | 9.73588 | 89.55244 | 34865 ft | 470 kts | 115° |
| 2026-05-07 05:07 | 9.70815 | 89.61243 | 34867 ft | 469 kts | 115° |
| 2026-05-07 05:08 | 9.68036 | 89.67252 | 34871 ft | 470 kts | 115° |
| 2026-05-07 05:08 | 9.65275 | 89.73219 | 34870 ft | 469 kts | 115° |
| 2026-05-07 05:09 | 9.62504 | 89.79204 | 34871 ft | 469 kts | 115° |
| 2026-05-07 05:09 | 9.59731 | 89.85191 | 34867 ft | 469 kts | 115° |
| 2026-05-07 05:10 | 9.56974 | 89.91140 | 34863 ft | 470 kts | 115° |
| 2026-05-07 05:10 | 9.54187 | 89.97148 | 34859 ft | 470 kts | 115° |
| 2026-05-07 05:11 | 9.51423 | 90.03108 | 34851 ft | 469 kts | 115° |
| 2026-05-07 05:11 | 9.48657 | 90.09066 | 34847 ft | 469 kts | 115° |
| 2026-05-07 05:12 | 9.45880 | 90.15044 | 34847 ft | 470 kts | 115° |
| 2026-05-07 05:12 | 9.43107 | 90.21011 | 34847 ft | 470 kts | 115° |
| 2026-05-07 05:13 | 9.40324 | 90.26998 | 34843 ft | 470 kts | 115° |
| 2026-05-07 05:13 | 9.37549 | 90.32963 | 34843 ft | 470 kts | 115° |
| 2026-05-07 05:14 | 9.34761 | 90.38953 | 34845 ft | 468 kts | 115° |
| 2026-05-07 05:14 | 9.31998 | 90.44887 | 34845 ft | 469 kts | 115° |
| 2026-05-07 05:15 | 9.29209 | 90.50872 | 34845 ft | 469 kts | 115° |
| 2026-05-07 05:15 | 9.26425 | 90.56846 | 34845 ft | 468 kts | 115° |
| 2026-05-07 05:16 | 9.23652 | 90.62791 | 34845 ft | 468 kts | 115° |
| 2026-05-07 05:16 | 9.20883 | 90.68726 | 34847 ft | 468 kts | 115° |
| 2026-05-07 05:17 | 9.18107 | 90.74672 | 34848 ft | 467 kts | 115° |
| 2026-05-07 05:17 | 9.15342 | 90.80593 | 34848 ft | 466 kts | 115° |
| 2026-05-07 05:18 | 9.12583 | 90.86496 | 34846 ft | 466 kts | 115° |
| 2026-05-07 05:18 | 9.09798 | 90.92453 | 34846 ft | 466 kts | 115° |
| 2026-05-07 05:19 | 9.07027 | 90.98375 | 34847 ft | 466 kts | 115° |
| 2026-05-07 05:19 | 9.04267 | 91.04273 | 34846 ft | 466 kts | 115° |
| 2026-05-07 05:20 | 9.01485 | 91.10214 | 34846 ft | 466 kts | 115° |
| 2026-05-07 05:20 | 8.98716 | 91.16124 | 34846 ft | 465 kts | 115° |
| 2026-05-07 05:21 | 8.94569 | 91.24970 | 34846 ft | 466 kts | 115° |
| 2026-05-07 05:22 | 8.91783 | 91.30911 | 34845 ft | 466 kts | 115° |
| 2026-05-07 05:22 | 8.89010 | 91.36818 | 34846 ft | 466 kts | 115° |
| 2026-05-07 05:23 | 8.86239 | 91.42722 | 34853 ft | 466 kts | 115° |
| 2026-05-07 05:23 | 8.83462 | 91.48632 | 34861 ft | 465 kts | 115° |
| 2026-05-07 05:24 | 8.80679 | 91.54555 | 34858 ft | 466 kts | 115° |
| 2026-05-07 05:24 | 8.77905 | 91.60454 | 34853 ft | 465 kts | 115° |
| 2026-05-07 05:25 | 8.75134 | 91.66344 | 34853 ft | 466 kts | 115° |
| 2026-05-07 05:25 | 8.72344 | 91.72272 | 34851 ft | 467 kts | 115° |
| 2026-05-07 05:26 | 8.69563 | 91.78178 | 34849 ft | 467 kts | 115° |
| 2026-05-07 05:26 | 8.66775 | 91.84096 | 34848 ft | 466 kts | 115° |
| 2026-05-07 05:27 | 8.63993 | 91.89998 | 34848 ft | 466 kts | 115° |
| 2026-05-07 05:27 | 8.61219 | 91.95881 | 34847 ft | 466 kts | 115° |
| 2026-05-07 05:28 | 8.58441 | 92.01828 | 34847 ft | 467 kts | 114° |
| 2026-05-07 05:28 | 8.55804 | 92.07811 | 34847 ft | 467 kts | 114° |
| 2026-05-07 05:29 | 8.53165 | 92.13792 | 34847 ft | 466 kts | 114° |
| 2026-05-07 05:29 | 8.50530 | 92.19750 | 34847 ft | 466 kts | 114° |
| 2026-05-07 05:30 | 8.47893 | 92.25706 | 34846 ft | 465 kts | 114° |
| 2026-05-07 05:30 | 8.45242 | 92.31685 | 34846 ft | 465 kts | 114° |
| 2026-05-07 05:31 | 8.42611 | 92.37616 | 34846 ft | 465 kts | 114° |
| 2026-05-07 05:31 | 8.39951 | 92.43608 | 34845 ft | 465 kts | 114° |
| 2026-05-07 05:32 | 8.37308 | 92.49559 | 34845 ft | 465 kts | 114° |
| 2026-05-07 05:32 | 8.34667 | 92.55501 | 34845 ft | 465 kts | 114° |
| 2026-05-07 05:33 | 8.32014 | 92.61467 | 34845 ft | 465 kts | 114° |
| 2026-05-07 05:33 | 8.29369 | 92.67413 | 34849 ft | 464 kts | 114° |
| 2026-05-07 05:34 | 8.26731 | 92.73341 | 34849 ft | 465 kts | 114° |
| 2026-05-07 05:34 | 8.24073 | 92.79311 | 34848 ft | 465 kts | 114° |
| 2026-05-07 05:35 | 8.21420 | 92.85266 | 34847 ft | 464 kts | 114° |
| 2026-05-07 05:35 | 8.18781 | 92.91188 | 34847 ft | 465 kts | 114° |
| 2026-05-07 05:36 | 8.16141 | 92.97108 | 34847 ft | 462 kts | 114° |
| 2026-05-07 05:36 | 8.13496 | 93.03038 | 34846 ft | 462 kts | 114° |
| 2026-05-07 05:37 | 8.10871 | 93.08920 | 34844 ft | 463 kts | 114° |
| 2026-05-07 05:37 | 8.08213 | 93.14873 | 34842 ft | 464 kts | 114° |
| 2026-05-07 05:38 | 8.05575 | 93.20779 | 34840 ft | 463 kts | 114° |
| 2026-05-07 05:38 | 8.02928 | 93.26701 | 34839 ft | 464 kts | 114° |
| 2026-05-07 05:39 | 8.00278 | 93.32629 | 34840 ft | 462 kts | 114° |
| 2026-05-07 05:39 | 7.97638 | 93.38531 | 34843 ft | 461 kts | 114° |
| 2026-05-07 05:40 | 7.95003 | 93.44420 | 34846 ft | 462 kts | 114° |
| 2026-05-07 05:40 | 7.93128 | 93.50597 | 34832 ft | 463 kts | 98° |
| 2026-05-07 05:41 | 7.93024 | 93.57024 | 34846 ft | 463 kts | 87° |
| 2026-05-07 05:41 | 7.93407 | 93.63524 | 34843 ft | 462 kts | 87° |
| 2026-05-07 05:42 | 7.93784 | 93.69974 | 34848 ft | 462 kts | 87° |
| 2026-05-07 05:42 | 7.94154 | 93.76405 | 34847 ft | 461 kts | 87° |
| 2026-05-07 05:43 | 7.94524 | 93.82867 | 34847 ft | 462 kts | 87° |
| 2026-05-07 05:43 | 7.94891 | 93.89323 | 34847 ft | 461 kts | 87° |
| 2026-05-07 05:44 | 7.95258 | 93.95792 | 34847 ft | 462 kts | 87° |
| 2026-05-07 05:44 | 7.95621 | 94.02226 | 34846 ft | 461 kts | 87° |
| 2026-05-07 05:45 | 7.95982 | 94.08646 | 34846 ft | 461 kts | 87° |
| 2026-05-07 05:45 | 7.96345 | 94.15099 | 34846 ft | 461 kts | 87° |
| 2026-05-07 05:46 | 7.96707 | 94.21571 | 34846 ft | 462 kts | 87° |
| 2026-05-07 05:46 | 7.97066 | 94.28018 | 34845 ft | 463 kts | 87° |
| 2026-05-07 05:47 | 7.97426 | 94.34489 | 34845 ft | 464 kts | 87° |
| 2026-05-07 05:47 | 7.97785 | 94.40948 | 34845 ft | 463 kts | 87° |
| 2026-05-07 05:48 | 7.98006 | 94.47452 | 34844 ft | 463 kts | 89° |
| 2026-05-07 05:48 | 7.98154 | 94.53923 | 34844 ft | 464 kts | 89° |
| 2026-05-07 05:49 | 7.98305 | 94.60281 | 34845 ft | 465 kts | 89° |
| 2026-05-07 05:49 | 7.98464 | 94.66797 | 34847 ft | 465 kts | 89° |
| 2026-05-07 05:50 | 7.98623 | 94.73299 | 34847 ft | 466 kts | 89° |
| 2026-05-07 05:50 | 7.98783 | 94.79850 | 34848 ft | 467 kts | 88° |
| 2026-05-07 05:51 | 7.98942 | 94.86351 | 34841 ft | 467 kts | 89° |
| 2026-05-07 05:51 | 7.99102 | 94.92889 | 34829 ft | 468 kts | 89° |
| 2026-05-07 05:52 | 7.99260 | 94.99438 | 34826 ft | 467 kts | 89° |
| 2026-05-07 05:52 | 7.99417 | 95.05971 | 34826 ft | 468 kts | 89° |
| 2026-05-07 05:53 | 7.99574 | 95.12532 | 34825 ft | 467 kts | 89° |
| 2026-05-07 05:53 | 7.99729 | 95.19052 | 34826 ft | 467 kts | 88° |
| 2026-05-07 05:54 | 7.99884 | 95.25606 | 34826 ft | 467 kts | 89° |
| 2026-05-07 05:54 | 8.00037 | 95.32140 | 34825 ft | 466 kts | 89° |
| 2026-05-07 05:55 | 8.00188 | 95.38641 | 34832 ft | 467 kts | 89° |
| 2026-05-07 05:55 | 8.00339 | 95.45164 | 34843 ft | 467 kts | 89° |
| 2026-05-07 05:56 | 8.00492 | 95.51704 | 34843 ft | 466 kts | 88° |
| 2026-05-07 05:56 | 8.00711 | 95.58247 | 34844 ft | 465 kts | 88° |
| 2026-05-07 05:57 | 8.00931 | 95.64757 | 34844 ft | 465 kts | 88° |
| 2026-05-07 05:57 | 8.01147 | 95.71235 | 34847 ft | 464 kts | 88° |
| 2026-05-07 05:58 | 8.01362 | 95.77737 | 34847 ft | 465 kts | 88° |
| 2026-05-07 05:58 | 8.01574 | 95.84234 | 34845 ft | 465 kts | 88° |
| 2026-05-07 05:59 | 8.01787 | 95.90754 | 34846 ft | 464 kts | 88° |
| 2026-05-07 05:59 | 8.01998 | 95.97269 | 34846 ft | 464 kts | 88° |
| 2026-05-07 06:00 | 8.02206 | 96.03736 | 34842 ft | 464 kts | 88° |
| 2026-05-07 06:00 | 8.02414 | 96.10229 | 34841 ft | 464 kts | 88° |
| 2026-05-07 06:01 | 8.02622 | 96.16753 | 34837 ft | 465 kts | 88° |
| 2026-05-07 06:01 | 8.02829 | 96.23267 | 34837 ft | 466 kts | 89° |
| 2026-05-07 06:02 | 8.03035 | 96.29780 | 34828 ft | 466 kts | 89° |
| 2026-05-07 06:02 | 8.03237 | 96.36215 | 33963 ft | 459 kts | 89° |
| 2026-05-07 06:02 | 8.03337 | 96.39419 | 32982 ft | 462 kts | 89° |
| 2026-05-07 06:03 | 8.03437 | 96.42644 | 32143 ft | 461 kts | 89° |
| 2026-05-07 06:03 | 8.03538 | 96.45868 | 31382 ft | 460 kts | 89° |
| 2026-05-07 06:03 | 8.03638 | 96.49101 | 30600 ft | 462 kts | 89° |
| 2026-05-07 06:03 | 8.03738 | 96.52341 | 30070 ft | 469 kts | 89° |
| 2026-05-07 06:04 | 8.03840 | 96.55660 | 29569 ft | 473 kts | 88° |
| 2026-05-07 06:04 | 8.03941 | 96.58965 | 29039 ft | 470 kts | 88° |
| 2026-05-07 06:04 | 8.04041 | 96.62225 | 28495 ft | 464 kts | 88° |
| 2026-05-07 06:04 | 8.04139 | 96.65410 | 27969 ft | 458 kts | 89° |
| 2026-05-07 06:05 | 8.04238 | 96.68642 | 27420 ft | 454 kts | 89° |
| 2026-05-07 06:05 | 8.04335 | 96.71803 | 26872 ft | 449 kts | 89° |
| 2026-05-07 06:05 | 8.04430 | 96.74937 | 26315 ft | 445 kts | 89° |
| 2026-05-07 06:05 | 8.04524 | 96.78019 | 25763 ft | 442 kts | 89° |
| 2026-05-07 06:06 | 8.04617 | 96.81100 | 25210 ft | 438 kts | 89° |
| 2026-05-07 06:06 | 8.04710 | 96.84158 | 24644 ft | 435 kts | 89° |
| 2026-05-07 06:06 | 8.04801 | 96.87189 | 24085 ft | 431 kts | 89° |
| 2026-05-07 06:06 | 8.04891 | 96.90190 | 23531 ft | 427 kts | 89° |
| 2026-05-07 06:07 | 8.04980 | 96.93163 | 22969 ft | 423 kts | 89° |
| 2026-05-07 06:07 | 8.05068 | 96.96091 | 22417 ft | 420 kts | 89° |
| 2026-05-07 06:07 | 8.05155 | 96.99016 | 21866 ft | 416 kts | 89° |
| 2026-05-07 06:07 | 8.05242 | 97.01916 | 21312 ft | 413 kts | 89° |
| 2026-05-07 06:08 | 8.05327 | 97.04780 | 20755 ft | 410 kts | 88° |
| 2026-05-07 06:08 | 8.05412 | 97.07649 | 20189 ft | 406 kts | 88° |
| 2026-05-07 06:08 | 8.05495 | 97.10484 | 19623 ft | 403 kts | 88° |
| 2026-05-07 06:08 | 8.05578 | 97.13283 | 19065 ft | 400 kts | 88° |
| 2026-05-07 06:09 | 8.05661 | 97.16103 | 18496 ft | 397 kts | 88° |
| 2026-05-07 06:09 | 8.05743 | 97.18868 | 17932 ft | 393 kts | 88° |
| 2026-05-07 06:09 | 8.05831 | 97.21581 | 17379 ft | 390 kts | 88° |
| 2026-05-07 06:09 | 8.05921 | 97.24320 | 16818 ft | 386 kts | 88° |
| 2026-05-07 06:10 | 8.06009 | 97.27037 | 16257 ft | 383 kts | 88° |
| 2026-05-07 06:10 | 8.06094 | 97.29705 | 15701 ft | 379 kts | 89° |
| 2026-05-07 06:10 | 8.06178 | 97.32343 | 15147 ft | 375 kts | 89° |
| 2026-05-07 06:10 | 8.06263 | 97.34995 | 14591 ft | 371 kts | 89° |
| 2026-05-07 06:11 | 8.06345 | 97.37566 | 14051 ft | 368 kts | 88° |
| 2026-05-07 06:11 | 8.06430 | 97.40126 | 13501 ft | 365 kts | 89° |
| 2026-05-07 06:11 | 8.06513 | 97.42677 | 12954 ft | 361 kts | 89° |
| 2026-05-07 06:11 | 8.06595 | 97.45184 | 12418 ft | 358 kts | 88° |
| 2026-05-07 06:12 | 8.06678 | 97.47719 | 11871 ft | 355 kts | 88° |
| 2026-05-07 06:12 | 8.06760 | 97.50197 | 11336 ft | 352 kts | 88° |
| 2026-05-07 06:12 | 8.06841 | 97.52657 | 10805 ft | 349 kts | 88° |
| 2026-05-07 06:12 | 8.06923 | 97.55120 | 10555 ft | 336 kts | 88° |
| 2026-05-07 06:13 | 8.06999 | 97.57407 | 10470 ft | 321 kts | 88° |
| 2026-05-07 06:13 | 8.07072 | 97.59607 | 10357 ft | 307 kts | 88° |
| 2026-05-07 06:13 | 8.07142 | 97.61730 | 10301 ft | 292 kts | 88° |
| 2026-05-07 06:13 | 8.07209 | 97.63728 | 10226 ft | 279 kts | 88° |
| 2026-05-07 06:14 | 8.07273 | 97.65649 | 10119 ft | 268 kts | 88° |
| 2026-05-07 06:14 | 8.07335 | 97.67531 | 9879 ft | 263 kts | 88° |
| 2026-05-07 06:14 | 8.07396 | 97.69373 | 9505 ft | 264 kts | 88° |
| 2026-05-07 06:14 | 8.07457 | 97.71227 | 9139 ft | 264 kts | 88° |
| 2026-05-07 06:15 | 8.07518 | 97.73083 | 8795 ft | 263 kts | 88° |
| 2026-05-07 06:15 | 8.07579 | 97.74915 | 8462 ft | 262 kts | 88° |
| 2026-05-07 06:15 | 8.07640 | 97.76759 | 8126 ft | 261 kts | 88° |
| 2026-05-07 06:15 | 8.07700 | 97.78582 | 7796 ft | 260 kts | 88° |
| 2026-05-07 06:16 | 8.07761 | 97.80400 | 7471 ft | 259 kts | 88° |
| 2026-05-07 06:16 | 8.07822 | 97.82237 | 7146 ft | 258 kts | 88° |
| 2026-05-07 06:16 | 8.07883 | 97.84042 | 6824 ft | 257 kts | 88° |
| 2026-05-07 06:16 | 8.07943 | 97.85847 | 6503 ft | 256 kts | 88° |
| 2026-05-07 06:17 | 8.08003 | 97.87638 | 6185 ft | 254 kts | 88° |
| 2026-05-07 06:17 | 8.08064 | 97.89427 | 5875 ft | 253 kts | 88° |
| 2026-05-07 06:17 | 8.08124 | 97.91202 | 5568 ft | 252 kts | 88° |
| 2026-05-07 06:17 | 8.08185 | 97.92960 | 5263 ft | 251 kts | 88° |
| 2026-05-07 06:18 | 8.08245 | 97.94704 | 4959 ft | 249 kts | 88° |
| 2026-05-07 06:18 | 8.08306 | 97.96451 | 4725 ft | 245 kts | 88° |
| 2026-05-07 06:18 | 8.08365 | 97.98121 | 4654 ft | 233 kts | 88° |
| 2026-05-07 06:18 | 8.08422 | 97.99719 | 4583 ft | 221 kts | 88° |
| 2026-05-07 06:19 | 8.08479 | 98.01231 | 4492 ft | 211 kts | 88° |
| 2026-05-07 06:19 | 8.08563 | 98.02694 | 4368 ft | 207 kts | 85° |
| 2026-05-07 06:19 | 8.08717 | 98.04168 | 4078 ft | 210 kts | 84° |
| 2026-05-07 06:19 | 8.08865 | 98.05621 | 3793 ft | 209 kts | 85° |
| 2026-05-07 06:20 | 8.09009 | 98.07085 | 3526 ft | 208 kts | 85° |
| 2026-05-07 06:20 | 8.09148 | 98.08518 | 3266 ft | 206 kts | 85° |
| 2026-05-07 06:20 | 8.09287 | 98.09959 | 3005 ft | 203 kts | 85° |
| 2026-05-07 06:20 | 8.09422 | 98.11375 | 2790 ft | 199 kts | 85° |
| 2026-05-07 06:21 | 8.09550 | 98.12769 | 2666 ft | 199 kts | 85° |
| 2026-05-07 06:21 | 8.09672 | 98.14078 | 2497 ft | 180 kts | 85° |
| 2026-05-07 06:21 | 8.09786 | 98.15308 | 2359 ft | 172 kts | 85° |
| 2026-05-07 06:21 | 8.09899 | 98.16518 | 2234 ft | 172 kts | 85° |
| 2026-05-07 06:22 | 8.10011 | 98.17731 | 2136 ft | 174 kts | 85° |
| 2026-05-07 06:22 | 8.10235 | 98.20143 | 1816 ft | 171 kts | 85° |
| 2026-05-07 06:22 | 8.10343 | 98.21313 | 1681 ft | 161 kts | 85° |
| 2026-05-07 06:23 | 8.10443 | 98.22377 | 1553 ft | 147 kts | 85° |
| 2026-05-07 06:23 | 8.10541 | 98.23417 | 1337 ft | 146 kts | 85° |
| 2026-05-07 06:23 | 8.10638 | 98.24440 | 1147 ft | 147 kts | 84° |
| 2026-05-07 06:23 | 8.10736 | 98.25476 | 949 ft | 147 kts | 84° |
| 2026-05-07 06:24 | 8.10833 | 98.26503 | 745 ft | 147 kts | 85° |
| 2026-05-07 06:24 | 8.10930 | 98.27525 | 550 ft | 146 kts | 85° |
| 2026-05-07 06:24 | 8.11026 | 98.28565 | 366 ft | 147 kts | 84° |
| 2026-05-07 06:24 | 8.11126 | 98.29591 | 221 ft | 148 kts | 84° |
| 2026-05-07 06:25 | 8.11224 | 98.30628 | 44 ft | 145 kts | 85° |
| 2026-05-07 06:25 | 8.11302 | 98.31474 | 57 ft | 91 kts | 85° |
| 2026-05-07 06:25 | 8.11344 | 98.31923 | 82 ft | 51 kts | 84° |
| 2026-05-07 06:25 | 8.11368 | 98.32195 | 87 ft | 24 kts | 85° |
| 2026-05-07 06:26 | 8.11346 | 98.32358 | 87 ft | 20 kts | 108° |
| 2026-05-07 06:26 | 8.11320 | 98.32420 | 86 ft | 6 kts | 124° |
| 2026-05-07 06:26 | 8.11281 | 98.32433 | 86 ft | 6 kts | 197° |
| 2026-05-07 06:26 | 8.11254 | 98.32405 | 86 ft | 6 kts | 248° |
| 2026-05-07 06:27 | 8.11247 | 98.32342 | 87 ft | 12 kts | 265° |
| 2026-05-07 06:27 | 8.11238 | 98.32233 | 87 ft | 18 kts | 264° |
| 2026-05-07 06:27 | 8.11223 | 98.32081 | 84 ft | 24 kts | 265° |
| 2026-05-07 06:27 | 8.11205 | 98.31893 | 77 ft | 28 kts | 264° |
| 2026-05-07 06:28 | 8.11186 | 98.31691 | 66 ft | 25 kts | 264° |
| 2026-05-07 06:28 | 8.11172 | 98.31541 | 58 ft | 18 kts | 265° |
| 2026-05-07 06:28 | 8.11160 | 98.31403 | 52 ft | 20 kts | 265° |
| 2026-05-07 06:28 | 8.11146 | 98.31254 | 47 ft | 21 kts | 264° |
| 2026-05-07 06:29 | 8.11132 | 98.31112 | 45 ft | 17 kts | 264° |
| 2026-05-07 06:29 | 8.11122 | 98.31004 | 44 ft | 9 kts | 260° |
| 2026-05-07 06:29 | 8.11097 | 98.30942 | 44 ft | 10 kts | 249° |
| 2026-05-07 06:29 | 8.11081 | 98.30849 | 44 ft | 17 kts | 265° |
| 2026-05-07 06:30 | 8.11069 | 98.30731 | 42 ft | 13 kts | 264° |
| 2026-05-07 06:30 | 8.11062 | 98.30650 | 41 ft | 10 kts | 265° |
| 2026-05-07 06:30 | 8.11055 | 98.30570 | 38 ft | 12 kts | 265° |
| 2026-05-07 06:30 | 8.11047 | 98.30489 | 37 ft | 4 kts | 263° |
| 2026-05-07 06:31 | 8.11033 | 98.30444 | 37 ft | 8 kts | 241° |
| 2026-05-07 06:31 | 8.10994 | 98.30407 | 38 ft | 7 kts | 208° |
| 2026-05-07 06:31 | 8.10948 | 98.30391 | 39 ft | 8 kts | 195° |
| 2026-05-07 06:31 | 8.10885 | 98.30374 | 41 ft | 8 kts | 194° |
| 2026-05-07 06:32 | 8.10824 | 98.30358 | 42 ft | 10 kts | 195° |
| 2026-05-07 06:32 | 8.10786 | 98.30348 | 42 ft | 3 kts | 195° |
| 2026-05-07 06:32 | 8.10765 | 98.30341 | 42 ft | 1 kts | 211° |
| 2026-05-07 06:32 | 8.10759 | 98.30327 | 41 ft | 4 kts | 259° |
| 2026-05-07 06:33 | 8.10762 | 98.30299 | 41 ft | 2 kts | 284° |
| 2026-05-07 06:33 | 8.10768 | 98.30276 | 41 ft | 2 kts | 285° |
| 2026-05-07 06:33 | 8.10769 | 98.30273 | 41 ft | 0 kts | 285° |